﻿<?xml version="1.0" encoding="UTF-8" standalone="no" ?>
<gpx xmlns="http://www.topografix.com/GPX/1/1" creator="CompeGPS" version="1.1" xmlns:xsi="http://www.w3.org/2001/XMLSchema-instance" xsi:schemaLocation="http://www.topografix.com/GPX/1/1 http://www.topografix.com/GPX/1/1/gpx.xsd http://www.garmin.com/xmlschemas/GpxExtensions/v3 http://www.garmin.com/xmlschemas/GpxExtensionsv3.xsd http://www.garmin.com/xmlschemas/TrackPointExtension/v1 http://www.garmin.com/xmlschemas/TrackPointExtensionv1.xsd" xmlns:gpxtpx="http://www.garmin.com/xmlschemas/TrackPointExtension/v1">
  <metadata>
    <link href="http://www.compegps.com">
      <text>CompeGPS TEAM, SL</text>
    </link>
    <time>2015-12-24T17:58:45Z</time>
    <bounds maxlat="44.594340" maxlon="6.870130" minlat="44.561907" minlon="6.840777"/>
  </metadata>
  <trk>
    <name>Rando_201</name>
    <trkseg>
      <trkpt lat="44.591847" lon="6.840777">
        <ele>1916.8</ele>
        <time>2015-07-09T12:23:29Z</time>
      </trkpt>
      <trkpt lat="44.591847" lon="6.840777">
        <ele>1916.8</ele>
        <time>2015-07-09T12:23:34Z</time>
      </trkpt>
      <trkpt lat="44.591847" lon="6.840777">
        <ele>1916.8</ele>
        <time>2015-07-09T12:23:34Z</time>
      </trkpt>
      <trkpt lat="44.591847" lon="6.840777">
        <ele>1916.8</ele>
        <time>2015-07-09T12:23:35Z</time>
      </trkpt>
      <trkpt lat="44.591867" lon="6.840788">
        <ele>1916.9</ele>
        <time>2015-07-09T12:24:41Z</time>
      </trkpt>
      <trkpt lat="44.591898" lon="6.840897">
        <ele>1916.9</ele>
        <time>2015-07-09T12:24:48Z</time>
      </trkpt>
      <trkpt lat="44.591918" lon="6.841013">
        <ele>1917.0</ele>
        <time>2015-07-09T12:24:55Z</time>
      </trkpt>
      <trkpt lat="44.591920" lon="6.841240">
        <ele>1913.0</ele>
        <time>2015-07-09T12:25:23Z</time>
      </trkpt>
      <trkpt lat="44.591917" lon="6.841248">
        <ele>1912.9</ele>
        <time>2015-07-09T12:25:24Z</time>
      </trkpt>
      <trkpt lat="44.591968" lon="6.841350">
        <ele>1912.5</ele>
        <time>2015-07-09T12:25:34Z</time>
      </trkpt>
      <trkpt lat="44.592035" lon="6.841418">
        <ele>1912.5</ele>
        <time>2015-07-09T12:25:40Z</time>
      </trkpt>
      <trkpt lat="44.592098" lon="6.841507">
        <ele>1912.5</ele>
        <time>2015-07-09T12:25:47Z</time>
      </trkpt>
      <trkpt lat="44.592153" lon="6.841587">
        <ele>1912.5</ele>
        <time>2015-07-09T12:25:53Z</time>
      </trkpt>
      <trkpt lat="44.592208" lon="6.841663">
        <ele>1912.5</ele>
        <time>2015-07-09T12:25:59Z</time>
      </trkpt>
      <trkpt lat="44.592258" lon="6.841747">
        <ele>1912.1</ele>
        <time>2015-07-09T12:26:05Z</time>
      </trkpt>
      <trkpt lat="44.592305" lon="6.841835">
        <ele>1912.1</ele>
        <time>2015-07-09T12:26:11Z</time>
      </trkpt>
      <trkpt lat="44.592355" lon="6.841940">
        <ele>1912.1</ele>
        <time>2015-07-09T12:26:18Z</time>
      </trkpt>
      <trkpt lat="44.592460" lon="6.842087">
        <ele>1912.0</ele>
        <time>2015-07-09T12:26:29Z</time>
      </trkpt>
      <trkpt lat="44.592470" lon="6.842100">
        <ele>1912.0</ele>
        <time>2015-07-09T12:26:30Z</time>
      </trkpt>
      <trkpt lat="44.592537" lon="6.842178">
        <ele>1911.4</ele>
        <time>2015-07-09T12:26:39Z</time>
      </trkpt>
      <trkpt lat="44.592612" lon="6.842217">
        <ele>1909.0</ele>
        <time>2015-07-09T12:26:44Z</time>
      </trkpt>
      <trkpt lat="44.592692" lon="6.842248">
        <ele>1910.1</ele>
        <time>2015-07-09T12:26:50Z</time>
      </trkpt>
      <trkpt lat="44.592758" lon="6.842313">
        <ele>1912.0</ele>
        <time>2015-07-09T12:26:57Z</time>
      </trkpt>
      <trkpt lat="44.592813" lon="6.842402">
        <ele>1912.6</ele>
        <time>2015-07-09T12:27:03Z</time>
      </trkpt>
      <trkpt lat="44.592888" lon="6.842465">
        <ele>1913.5</ele>
        <time>2015-07-09T12:27:11Z</time>
      </trkpt>
      <trkpt lat="44.592972" lon="6.842510">
        <ele>1913.3</ele>
        <time>2015-07-09T12:27:18Z</time>
      </trkpt>
      <trkpt lat="44.593100" lon="6.842615">
        <ele>1913.1</ele>
        <time>2015-07-09T12:27:31Z</time>
      </trkpt>
      <trkpt lat="44.593107" lon="6.842632">
        <ele>1913.4</ele>
        <time>2015-07-09T12:27:32Z</time>
      </trkpt>
      <trkpt lat="44.593152" lon="6.842722">
        <ele>1914.3</ele>
        <time>2015-07-09T12:27:38Z</time>
      </trkpt>
      <trkpt lat="44.593198" lon="6.842823">
        <ele>1914.8</ele>
        <time>2015-07-09T12:27:45Z</time>
      </trkpt>
      <trkpt lat="44.593247" lon="6.842927">
        <ele>1915.0</ele>
        <time>2015-07-09T12:27:52Z</time>
      </trkpt>
      <trkpt lat="44.593293" lon="6.843033">
        <ele>1915.3</ele>
        <time>2015-07-09T12:27:59Z</time>
      </trkpt>
      <trkpt lat="44.593335" lon="6.843138">
        <ele>1915.5</ele>
        <time>2015-07-09T12:28:06Z</time>
      </trkpt>
      <trkpt lat="44.593370" lon="6.843250">
        <ele>1915.5</ele>
        <time>2015-07-09T12:28:13Z</time>
      </trkpt>
      <trkpt lat="44.593403" lon="6.843357">
        <ele>1915.9</ele>
        <time>2015-07-09T12:28:20Z</time>
      </trkpt>
      <trkpt lat="44.593465" lon="6.843538">
        <ele>1916.5</ele>
        <time>2015-07-09T12:28:32Z</time>
      </trkpt>
      <trkpt lat="44.593472" lon="6.843557">
        <ele>1916.5</ele>
        <time>2015-07-09T12:28:33Z</time>
      </trkpt>
      <trkpt lat="44.593512" lon="6.843655">
        <ele>1917.0</ele>
        <time>2015-07-09T12:28:39Z</time>
      </trkpt>
      <trkpt lat="44.593547" lon="6.843768">
        <ele>1917.0</ele>
        <time>2015-07-09T12:28:46Z</time>
      </trkpt>
      <trkpt lat="44.593582" lon="6.843883">
        <ele>1918.3</ele>
        <time>2015-07-09T12:28:54Z</time>
      </trkpt>
      <trkpt lat="44.593610" lon="6.843995">
        <ele>1918.5</ele>
        <time>2015-07-09T12:29:01Z</time>
      </trkpt>
      <trkpt lat="44.593638" lon="6.844112">
        <ele>1919.0</ele>
        <time>2015-07-09T12:29:08Z</time>
      </trkpt>
      <trkpt lat="44.593672" lon="6.844212">
        <ele>1919.6</ele>
        <time>2015-07-09T12:29:14Z</time>
      </trkpt>
      <trkpt lat="44.593702" lon="6.844328">
        <ele>1920.4</ele>
        <time>2015-07-09T12:29:21Z</time>
      </trkpt>
      <trkpt lat="44.593725" lon="6.844537">
        <ele>1920.9</ele>
        <time>2015-07-09T12:29:37Z</time>
      </trkpt>
      <trkpt lat="44.593725" lon="6.844550">
        <ele>1920.9</ele>
        <time>2015-07-09T12:29:38Z</time>
      </trkpt>
      <trkpt lat="44.593750" lon="6.844670">
        <ele>1921.3</ele>
        <time>2015-07-09T12:29:45Z</time>
      </trkpt>
      <trkpt lat="44.593762" lon="6.844783">
        <ele>1921.9</ele>
        <time>2015-07-09T12:29:51Z</time>
      </trkpt>
      <trkpt lat="44.593775" lon="6.844897">
        <ele>1922.3</ele>
        <time>2015-07-09T12:29:57Z</time>
      </trkpt>
      <trkpt lat="44.593742" lon="6.845012">
        <ele>1923.0</ele>
        <time>2015-07-09T12:30:04Z</time>
      </trkpt>
      <trkpt lat="44.593688" lon="6.845098">
        <ele>1924.4</ele>
        <time>2015-07-09T12:30:10Z</time>
      </trkpt>
      <trkpt lat="44.593630" lon="6.845193">
        <ele>1925.0</ele>
        <time>2015-07-09T12:30:17Z</time>
      </trkpt>
      <trkpt lat="44.593592" lon="6.845303">
        <ele>1925.5</ele>
        <time>2015-07-09T12:30:23Z</time>
      </trkpt>
      <trkpt lat="44.593560" lon="6.845402">
        <ele>1925.6</ele>
        <time>2015-07-09T12:30:28Z</time>
      </trkpt>
      <trkpt lat="44.593525" lon="6.845602">
        <ele>1926.0</ele>
        <time>2015-07-09T12:30:38Z</time>
      </trkpt>
      <trkpt lat="44.593522" lon="6.845622">
        <ele>1926.0</ele>
        <time>2015-07-09T12:30:39Z</time>
      </trkpt>
      <trkpt lat="44.593503" lon="6.845740">
        <ele>1926.4</ele>
        <time>2015-07-09T12:30:45Z</time>
      </trkpt>
      <trkpt lat="44.593493" lon="6.845858">
        <ele>1927.3</ele>
        <time>2015-07-09T12:30:59Z</time>
      </trkpt>
      <trkpt lat="44.593488" lon="6.845983">
        <ele>1928.0</ele>
        <time>2015-07-09T12:31:06Z</time>
      </trkpt>
      <trkpt lat="44.593468" lon="6.846105">
        <ele>1928.5</ele>
        <time>2015-07-09T12:31:13Z</time>
      </trkpt>
      <trkpt lat="44.593447" lon="6.846210">
        <ele>1929.0</ele>
        <time>2015-07-09T12:31:19Z</time>
      </trkpt>
      <trkpt lat="44.593388" lon="6.846417">
        <ele>1929.8</ele>
        <time>2015-07-09T12:31:40Z</time>
      </trkpt>
      <trkpt lat="44.593385" lon="6.846433">
        <ele>1929.6</ele>
        <time>2015-07-09T12:31:41Z</time>
      </trkpt>
      <trkpt lat="44.593360" lon="6.846553">
        <ele>1929.9</ele>
        <time>2015-07-09T12:31:48Z</time>
      </trkpt>
      <trkpt lat="44.593348" lon="6.846663">
        <ele>1929.8</ele>
        <time>2015-07-09T12:31:54Z</time>
      </trkpt>
      <trkpt lat="44.593340" lon="6.846782">
        <ele>1929.8</ele>
        <time>2015-07-09T12:32:01Z</time>
      </trkpt>
      <trkpt lat="44.593333" lon="6.846903">
        <ele>1929.8</ele>
        <time>2015-07-09T12:32:08Z</time>
      </trkpt>
      <trkpt lat="44.593325" lon="6.847012">
        <ele>1929.6</ele>
        <time>2015-07-09T12:32:14Z</time>
      </trkpt>
      <trkpt lat="44.593327" lon="6.847133">
        <ele>1929.5</ele>
        <time>2015-07-09T12:32:21Z</time>
      </trkpt>
      <trkpt lat="44.593333" lon="6.847243">
        <ele>1929.5</ele>
        <time>2015-07-09T12:32:27Z</time>
      </trkpt>
      <trkpt lat="44.593348" lon="6.847348">
        <ele>1929.3</ele>
        <time>2015-07-09T12:32:33Z</time>
      </trkpt>
      <trkpt lat="44.593393" lon="6.847550">
        <ele>1929.5</ele>
        <time>2015-07-09T12:32:44Z</time>
      </trkpt>
      <trkpt lat="44.593397" lon="6.847567">
        <ele>1929.6</ele>
        <time>2015-07-09T12:32:45Z</time>
      </trkpt>
      <trkpt lat="44.593402" lon="6.847688">
        <ele>1929.3</ele>
        <time>2015-07-09T12:32:52Z</time>
      </trkpt>
      <trkpt lat="44.593383" lon="6.847800">
        <ele>1928.8</ele>
        <time>2015-07-09T12:33:17Z</time>
      </trkpt>
      <trkpt lat="44.593400" lon="6.847920">
        <ele>1927.5</ele>
        <time>2015-07-09T12:33:25Z</time>
      </trkpt>
      <trkpt lat="44.593418" lon="6.848030">
        <ele>1926.6</ele>
        <time>2015-07-09T12:33:32Z</time>
      </trkpt>
      <trkpt lat="44.593465" lon="6.848243">
        <ele>1924.9</ele>
        <time>2015-07-09T12:33:46Z</time>
      </trkpt>
      <trkpt lat="44.593470" lon="6.848257">
        <ele>1924.8</ele>
        <time>2015-07-09T12:33:47Z</time>
      </trkpt>
      <trkpt lat="44.593512" lon="6.848357">
        <ele>1924.0</ele>
        <time>2015-07-09T12:33:54Z</time>
      </trkpt>
      <trkpt lat="44.593560" lon="6.848452">
        <ele>1923.1</ele>
        <time>2015-07-09T12:34:01Z</time>
      </trkpt>
      <trkpt lat="44.593595" lon="6.848550">
        <ele>1922.3</ele>
        <time>2015-07-09T12:34:08Z</time>
      </trkpt>
      <trkpt lat="44.593628" lon="6.848653">
        <ele>1921.6</ele>
        <time>2015-07-09T12:34:15Z</time>
      </trkpt>
      <trkpt lat="44.593647" lon="6.848765">
        <ele>1920.5</ele>
        <time>2015-07-09T12:34:22Z</time>
      </trkpt>
      <trkpt lat="44.593675" lon="6.848877">
        <ele>1919.8</ele>
        <time>2015-07-09T12:34:29Z</time>
      </trkpt>
      <trkpt lat="44.593710" lon="6.848988">
        <ele>1919.1</ele>
        <time>2015-07-09T12:34:36Z</time>
      </trkpt>
      <trkpt lat="44.593762" lon="6.849200">
        <ele>1918.5</ele>
        <time>2015-07-09T12:34:49Z</time>
      </trkpt>
      <trkpt lat="44.593763" lon="6.849217">
        <ele>1918.4</ele>
        <time>2015-07-09T12:34:50Z</time>
      </trkpt>
      <trkpt lat="44.593787" lon="6.849332">
        <ele>1917.5</ele>
        <time>2015-07-09T12:34:57Z</time>
      </trkpt>
      <trkpt lat="44.593808" lon="6.849445">
        <ele>1916.8</ele>
        <time>2015-07-09T12:35:04Z</time>
      </trkpt>
      <trkpt lat="44.593837" lon="6.849553">
        <ele>1916.5</ele>
        <time>2015-07-09T12:35:11Z</time>
      </trkpt>
      <trkpt lat="44.593880" lon="6.849652">
        <ele>1916.3</ele>
        <time>2015-07-09T12:35:17Z</time>
      </trkpt>
      <trkpt lat="44.593915" lon="6.849748">
        <ele>1916.3</ele>
        <time>2015-07-09T12:35:23Z</time>
      </trkpt>
      <trkpt lat="44.593950" lon="6.849847">
        <ele>1916.5</ele>
        <time>2015-07-09T12:35:29Z</time>
      </trkpt>
      <trkpt lat="44.593992" lon="6.849943">
        <ele>1916.8</ele>
        <time>2015-07-09T12:35:35Z</time>
      </trkpt>
      <trkpt lat="44.594003" lon="6.850062">
        <ele>1916.6</ele>
        <time>2015-07-09T12:35:43Z</time>
      </trkpt>
      <trkpt lat="44.594027" lon="6.850275">
        <ele>1917.0</ele>
        <time>2015-07-09T12:35:55Z</time>
      </trkpt>
      <trkpt lat="44.594028" lon="6.850293">
        <ele>1917.0</ele>
        <time>2015-07-09T12:35:56Z</time>
      </trkpt>
      <trkpt lat="44.594035" lon="6.850418">
        <ele>1916.9</ele>
        <time>2015-07-09T12:36:03Z</time>
      </trkpt>
      <trkpt lat="44.594050" lon="6.850525">
        <ele>1917.3</ele>
        <time>2015-07-09T12:36:09Z</time>
      </trkpt>
      <trkpt lat="44.594063" lon="6.850635">
        <ele>1917.3</ele>
        <time>2015-07-09T12:36:15Z</time>
      </trkpt>
      <trkpt lat="44.594070" lon="6.850752">
        <ele>1917.6</ele>
        <time>2015-07-09T12:36:21Z</time>
      </trkpt>
      <trkpt lat="44.594085" lon="6.850860">
        <ele>1918.0</ele>
        <time>2015-07-09T12:36:27Z</time>
      </trkpt>
      <trkpt lat="44.594107" lon="6.850970">
        <ele>1918.3</ele>
        <time>2015-07-09T12:36:33Z</time>
      </trkpt>
      <trkpt lat="44.594138" lon="6.851077">
        <ele>1918.8</ele>
        <time>2015-07-09T12:36:39Z</time>
      </trkpt>
      <trkpt lat="44.594168" lon="6.851190">
        <ele>1918.9</ele>
        <time>2015-07-09T12:36:45Z</time>
      </trkpt>
      <trkpt lat="44.594240" lon="6.851367">
        <ele>1917.5</ele>
        <time>2015-07-09T12:36:57Z</time>
      </trkpt>
      <trkpt lat="44.594250" lon="6.851375">
        <ele>1917.5</ele>
        <time>2015-07-09T12:36:58Z</time>
      </trkpt>
      <trkpt lat="44.594312" lon="6.851445">
        <ele>1917.8</ele>
        <time>2015-07-09T12:37:04Z</time>
      </trkpt>
      <trkpt lat="44.594340" lon="6.851547">
        <ele>1919.5</ele>
        <time>2015-07-09T12:37:11Z</time>
      </trkpt>
      <trkpt lat="44.594288" lon="6.851645">
        <ele>1919.5</ele>
        <time>2015-07-09T12:37:18Z</time>
      </trkpt>
      <trkpt lat="44.594267" lon="6.851757">
        <ele>1919.0</ele>
        <time>2015-07-09T12:37:25Z</time>
      </trkpt>
      <trkpt lat="44.594263" lon="6.851870">
        <ele>1919.0</ele>
        <time>2015-07-09T12:37:32Z</time>
      </trkpt>
      <trkpt lat="44.594238" lon="6.851980">
        <ele>1919.1</ele>
        <time>2015-07-09T12:37:39Z</time>
      </trkpt>
      <trkpt lat="44.594185" lon="6.852073">
        <ele>1919.8</ele>
        <time>2015-07-09T12:37:45Z</time>
      </trkpt>
      <trkpt lat="44.594128" lon="6.852163">
        <ele>1920.5</ele>
        <time>2015-07-09T12:37:51Z</time>
      </trkpt>
      <trkpt lat="44.594065" lon="6.852357">
        <ele>1921.8</ele>
        <time>2015-07-09T12:38:03Z</time>
      </trkpt>
      <trkpt lat="44.594062" lon="6.852375">
        <ele>1921.9</ele>
        <time>2015-07-09T12:38:04Z</time>
      </trkpt>
      <trkpt lat="44.594060" lon="6.852488">
        <ele>1922.9</ele>
        <time>2015-07-09T12:38:10Z</time>
      </trkpt>
      <trkpt lat="44.594062" lon="6.852598">
        <ele>1923.9</ele>
        <time>2015-07-09T12:38:16Z</time>
      </trkpt>
      <trkpt lat="44.594070" lon="6.852713">
        <ele>1924.5</ele>
        <time>2015-07-09T12:38:22Z</time>
      </trkpt>
      <trkpt lat="44.594075" lon="6.852823">
        <ele>1925.0</ele>
        <time>2015-07-09T12:38:28Z</time>
      </trkpt>
      <trkpt lat="44.594073" lon="6.852947">
        <ele>1925.6</ele>
        <time>2015-07-09T12:38:35Z</time>
      </trkpt>
      <trkpt lat="44.594065" lon="6.853065">
        <ele>1927.3</ele>
        <time>2015-07-09T12:38:42Z</time>
      </trkpt>
      <trkpt lat="44.594060" lon="6.853180">
        <ele>1928.3</ele>
        <time>2015-07-09T12:38:48Z</time>
      </trkpt>
      <trkpt lat="44.594062" lon="6.853288">
        <ele>1928.4</ele>
        <time>2015-07-09T12:38:53Z</time>
      </trkpt>
      <trkpt lat="44.594010" lon="6.853483">
        <ele>1930.1</ele>
        <time>2015-07-09T12:39:05Z</time>
      </trkpt>
      <trkpt lat="44.594002" lon="6.853500">
        <ele>1930.1</ele>
        <time>2015-07-09T12:39:06Z</time>
      </trkpt>
      <trkpt lat="44.594022" lon="6.853618">
        <ele>1930.8</ele>
        <time>2015-07-09T12:39:14Z</time>
      </trkpt>
      <trkpt lat="44.594035" lon="6.853730">
        <ele>1932.8</ele>
        <time>2015-07-09T12:39:22Z</time>
      </trkpt>
      <trkpt lat="44.594040" lon="6.853837">
        <ele>1934.6</ele>
        <time>2015-07-09T12:39:29Z</time>
      </trkpt>
      <trkpt lat="44.594007" lon="6.853947">
        <ele>1937.0</ele>
        <time>2015-07-09T12:39:37Z</time>
      </trkpt>
      <trkpt lat="44.593950" lon="6.854032">
        <ele>1937.4</ele>
        <time>2015-07-09T12:39:47Z</time>
      </trkpt>
      <trkpt lat="44.593902" lon="6.854130">
        <ele>1936.9</ele>
        <time>2015-07-09T12:39:54Z</time>
      </trkpt>
      <trkpt lat="44.593768" lon="6.854262">
        <ele>1936.4</ele>
        <time>2015-07-09T12:40:09Z</time>
      </trkpt>
      <trkpt lat="44.593758" lon="6.854272">
        <ele>1936.5</ele>
        <time>2015-07-09T12:40:10Z</time>
      </trkpt>
      <trkpt lat="44.593703" lon="6.854370">
        <ele>1938.3</ele>
        <time>2015-07-09T12:40:18Z</time>
      </trkpt>
      <trkpt lat="44.593678" lon="6.854483">
        <ele>1940.0</ele>
        <time>2015-07-09T12:40:25Z</time>
      </trkpt>
      <trkpt lat="44.593638" lon="6.854577">
        <ele>1941.3</ele>
        <time>2015-07-09T12:40:31Z</time>
      </trkpt>
      <trkpt lat="44.593585" lon="6.854675">
        <ele>1941.5</ele>
        <time>2015-07-09T12:40:38Z</time>
      </trkpt>
      <trkpt lat="44.593527" lon="6.854768">
        <ele>1942.0</ele>
        <time>2015-07-09T12:40:45Z</time>
      </trkpt>
      <trkpt lat="44.593467" lon="6.854845">
        <ele>1942.9</ele>
        <time>2015-07-09T12:40:52Z</time>
      </trkpt>
      <trkpt lat="44.593402" lon="6.854925">
        <ele>1945.6</ele>
        <time>2015-07-09T12:40:59Z</time>
      </trkpt>
      <trkpt lat="44.593288" lon="6.855067">
        <ele>1949.0</ele>
        <time>2015-07-09T12:41:12Z</time>
      </trkpt>
      <trkpt lat="44.593280" lon="6.855078">
        <ele>1949.3</ele>
        <time>2015-07-09T12:41:13Z</time>
      </trkpt>
      <trkpt lat="44.593223" lon="6.855160">
        <ele>1951.3</ele>
        <time>2015-07-09T12:41:21Z</time>
      </trkpt>
      <trkpt lat="44.593163" lon="6.855243">
        <ele>1951.9</ele>
        <time>2015-07-09T12:41:27Z</time>
      </trkpt>
      <trkpt lat="44.593110" lon="6.855315">
        <ele>1952.0</ele>
        <time>2015-07-09T12:41:33Z</time>
      </trkpt>
      <trkpt lat="44.593047" lon="6.855383">
        <ele>1952.4</ele>
        <time>2015-07-09T12:41:39Z</time>
      </trkpt>
      <trkpt lat="44.592982" lon="6.855445">
        <ele>1952.9</ele>
        <time>2015-07-09T12:41:45Z</time>
      </trkpt>
      <trkpt lat="44.592898" lon="6.855492">
        <ele>1953.8</ele>
        <time>2015-07-09T12:42:00Z</time>
      </trkpt>
      <trkpt lat="44.592770" lon="6.855628">
        <ele>1955.5</ele>
        <time>2015-07-09T12:42:15Z</time>
      </trkpt>
      <trkpt lat="44.592757" lon="6.855640">
        <ele>1955.5</ele>
        <time>2015-07-09T12:42:16Z</time>
      </trkpt>
      <trkpt lat="44.592685" lon="6.855698">
        <ele>1956.1</ele>
        <time>2015-07-09T12:42:26Z</time>
      </trkpt>
      <trkpt lat="44.592620" lon="6.855753">
        <ele>1956.4</ele>
        <time>2015-07-09T12:42:32Z</time>
      </trkpt>
      <trkpt lat="44.592557" lon="6.855828">
        <ele>1956.6</ele>
        <time>2015-07-09T12:42:40Z</time>
      </trkpt>
      <trkpt lat="44.592495" lon="6.855910">
        <ele>1958.4</ele>
        <time>2015-07-09T12:42:48Z</time>
      </trkpt>
      <trkpt lat="44.592442" lon="6.856005">
        <ele>1961.0</ele>
        <time>2015-07-09T12:42:57Z</time>
      </trkpt>
      <trkpt lat="44.592360" lon="6.856052">
        <ele>1961.0</ele>
        <time>2015-07-09T12:43:05Z</time>
      </trkpt>
      <trkpt lat="44.592273" lon="6.856068">
        <ele>1960.5</ele>
        <time>2015-07-09T12:43:13Z</time>
      </trkpt>
      <trkpt lat="44.592137" lon="6.856150">
        <ele>1957.9</ele>
        <time>2015-07-09T12:43:25Z</time>
      </trkpt>
      <trkpt lat="44.592128" lon="6.856150">
        <ele>1958.0</ele>
        <time>2015-07-09T12:43:26Z</time>
      </trkpt>
      <trkpt lat="44.592073" lon="6.856240">
        <ele>1959.9</ele>
        <time>2015-07-09T12:43:35Z</time>
      </trkpt>
      <trkpt lat="44.592013" lon="6.856328">
        <ele>1961.3</ele>
        <time>2015-07-09T12:43:44Z</time>
      </trkpt>
      <trkpt lat="44.591967" lon="6.856428">
        <ele>1961.8</ele>
        <time>2015-07-09T12:43:51Z</time>
      </trkpt>
      <trkpt lat="44.591928" lon="6.856540">
        <ele>1963.1</ele>
        <time>2015-07-09T12:44:01Z</time>
      </trkpt>
      <trkpt lat="44.591890" lon="6.856640">
        <ele>1964.3</ele>
        <time>2015-07-09T12:44:10Z</time>
      </trkpt>
      <trkpt lat="44.591825" lon="6.856720">
        <ele>1965.8</ele>
        <time>2015-07-09T12:44:19Z</time>
      </trkpt>
      <trkpt lat="44.591730" lon="6.856867">
        <ele>1966.8</ele>
        <time>2015-07-09T12:44:33Z</time>
      </trkpt>
      <trkpt lat="44.591717" lon="6.856882">
        <ele>1966.6</ele>
        <time>2015-07-09T12:44:34Z</time>
      </trkpt>
      <trkpt lat="44.591688" lon="6.856995">
        <ele>1965.5</ele>
        <time>2015-07-09T12:44:46Z</time>
      </trkpt>
      <trkpt lat="44.591667" lon="6.857112">
        <ele>1967.3</ele>
        <time>2015-07-09T12:44:55Z</time>
      </trkpt>
      <trkpt lat="44.591662" lon="6.857233">
        <ele>1970.3</ele>
        <time>2015-07-09T12:45:05Z</time>
      </trkpt>
      <trkpt lat="44.591625" lon="6.857337">
        <ele>1971.3</ele>
        <time>2015-07-09T12:45:11Z</time>
      </trkpt>
      <trkpt lat="44.591537" lon="6.857347">
        <ele>1972.3</ele>
        <time>2015-07-09T12:45:15Z</time>
      </trkpt>
      <trkpt lat="44.591467" lon="6.857290">
        <ele>1972.3</ele>
        <time>2015-07-09T12:45:21Z</time>
      </trkpt>
      <trkpt lat="44.591435" lon="6.857077">
        <ele>1972.4</ele>
        <time>2015-07-09T12:45:35Z</time>
      </trkpt>
      <trkpt lat="44.591432" lon="6.857063">
        <ele>1972.6</ele>
        <time>2015-07-09T12:45:36Z</time>
      </trkpt>
      <trkpt lat="44.591410" lon="6.856943">
        <ele>1974.0</ele>
        <time>2015-07-09T12:45:43Z</time>
      </trkpt>
      <trkpt lat="44.591457" lon="6.856852">
        <ele>1974.8</ele>
        <time>2015-07-09T12:45:50Z</time>
      </trkpt>
      <trkpt lat="44.591477" lon="6.856740">
        <ele>1974.9</ele>
        <time>2015-07-09T12:45:58Z</time>
      </trkpt>
      <trkpt lat="44.591478" lon="6.856617">
        <ele>1977.3</ele>
        <time>2015-07-09T12:46:08Z</time>
      </trkpt>
      <trkpt lat="44.591520" lon="6.856507">
        <ele>1978.0</ele>
        <time>2015-07-09T12:46:16Z</time>
      </trkpt>
      <trkpt lat="44.591513" lon="6.856388">
        <ele>1979.1</ele>
        <time>2015-07-09T12:46:22Z</time>
      </trkpt>
      <trkpt lat="44.591463" lon="6.856363">
        <ele>1988.1</ele>
        <time>2015-07-09T12:46:42Z</time>
      </trkpt>
      <trkpt lat="44.591460" lon="6.856378">
        <ele>1988.5</ele>
        <time>2015-07-09T12:46:43Z</time>
      </trkpt>
      <trkpt lat="44.591407" lon="6.856462">
        <ele>1989.6</ele>
        <time>2015-07-09T12:46:50Z</time>
      </trkpt>
      <trkpt lat="44.591332" lon="6.856513">
        <ele>1990.6</ele>
        <time>2015-07-09T12:46:57Z</time>
      </trkpt>
      <trkpt lat="44.591273" lon="6.856598">
        <ele>1991.9</ele>
        <time>2015-07-09T12:47:05Z</time>
      </trkpt>
      <trkpt lat="44.591240" lon="6.856705">
        <ele>1995.0</ele>
        <time>2015-07-09T12:47:12Z</time>
      </trkpt>
      <trkpt lat="44.591188" lon="6.856797">
        <ele>1998.8</ele>
        <time>2015-07-09T12:47:18Z</time>
      </trkpt>
      <trkpt lat="44.591160" lon="6.856902">
        <ele>2003.5</ele>
        <time>2015-07-09T12:47:25Z</time>
      </trkpt>
      <trkpt lat="44.591117" lon="6.857007">
        <ele>2009.0</ele>
        <time>2015-07-09T12:47:33Z</time>
      </trkpt>
      <trkpt lat="44.591080" lon="6.857218">
        <ele>2018.5</ele>
        <time>2015-07-09T12:47:48Z</time>
      </trkpt>
      <trkpt lat="44.591080" lon="6.857235">
        <ele>2019.3</ele>
        <time>2015-07-09T12:47:49Z</time>
      </trkpt>
      <trkpt lat="44.591057" lon="6.857350">
        <ele>2026.0</ele>
        <time>2015-07-09T12:47:59Z</time>
      </trkpt>
      <trkpt lat="44.591062" lon="6.857465">
        <ele>2031.5</ele>
        <time>2015-07-09T12:48:17Z</time>
      </trkpt>
      <trkpt lat="44.591048" lon="6.857587">
        <ele>2031.3</ele>
        <time>2015-07-09T12:48:27Z</time>
      </trkpt>
      <trkpt lat="44.591042" lon="6.857710">
        <ele>2030.6</ele>
        <time>2015-07-09T12:48:36Z</time>
      </trkpt>
      <trkpt lat="44.591013" lon="6.857925">
        <ele>2028.8</ele>
        <time>2015-07-09T12:48:55Z</time>
      </trkpt>
      <trkpt lat="44.591013" lon="6.857935">
        <ele>2028.5</ele>
        <time>2015-07-09T12:48:56Z</time>
      </trkpt>
      <trkpt lat="44.591028" lon="6.858058">
        <ele>2027.5</ele>
        <time>2015-07-09T12:49:05Z</time>
      </trkpt>
      <trkpt lat="44.591077" lon="6.858157">
        <ele>2027.9</ele>
        <time>2015-07-09T12:49:13Z</time>
      </trkpt>
      <trkpt lat="44.591082" lon="6.858278">
        <ele>2027.8</ele>
        <time>2015-07-09T12:49:23Z</time>
      </trkpt>
      <trkpt lat="44.591100" lon="6.858400">
        <ele>2027.9</ele>
        <time>2015-07-09T12:49:33Z</time>
      </trkpt>
      <trkpt lat="44.591078" lon="6.858632">
        <ele>2031.3</ele>
        <time>2015-07-09T12:50:00Z</time>
      </trkpt>
      <trkpt lat="44.591077" lon="6.858642">
        <ele>2031.4</ele>
        <time>2015-07-09T12:50:01Z</time>
      </trkpt>
      <trkpt lat="44.591062" lon="6.858760">
        <ele>2033.5</ele>
        <time>2015-07-09T12:50:10Z</time>
      </trkpt>
      <trkpt lat="44.591018" lon="6.858870">
        <ele>2034.0</ele>
        <time>2015-07-09T12:50:20Z</time>
      </trkpt>
      <trkpt lat="44.590967" lon="6.858962">
        <ele>2036.3</ele>
        <time>2015-07-09T12:50:29Z</time>
      </trkpt>
      <trkpt lat="44.590915" lon="6.859050">
        <ele>2037.6</ele>
        <time>2015-07-09T12:50:37Z</time>
      </trkpt>
      <trkpt lat="44.590855" lon="6.859142">
        <ele>2040.0</ele>
        <time>2015-07-09T12:50:46Z</time>
      </trkpt>
      <trkpt lat="44.590712" lon="6.859192">
        <ele>2043.9</ele>
        <time>2015-07-09T12:51:02Z</time>
      </trkpt>
      <trkpt lat="44.590697" lon="6.859188">
        <ele>2044.1</ele>
        <time>2015-07-09T12:51:03Z</time>
      </trkpt>
      <trkpt lat="44.590610" lon="6.859157">
        <ele>2046.5</ele>
        <time>2015-07-09T12:51:11Z</time>
      </trkpt>
      <trkpt lat="44.590528" lon="6.859132">
        <ele>2047.5</ele>
        <time>2015-07-09T12:51:19Z</time>
      </trkpt>
      <trkpt lat="44.590445" lon="6.859120">
        <ele>2046.8</ele>
        <time>2015-07-09T12:51:27Z</time>
      </trkpt>
      <trkpt lat="44.590380" lon="6.859033">
        <ele>2046.4</ele>
        <time>2015-07-09T12:51:40Z</time>
      </trkpt>
      <trkpt lat="44.590303" lon="6.858968">
        <ele>2046.9</ele>
        <time>2015-07-09T12:51:49Z</time>
      </trkpt>
      <trkpt lat="44.590152" lon="6.858902">
        <ele>2047.0</ele>
        <time>2015-07-09T12:52:04Z</time>
      </trkpt>
      <trkpt lat="44.590142" lon="6.858902">
        <ele>2047.0</ele>
        <time>2015-07-09T12:52:05Z</time>
      </trkpt>
      <trkpt lat="44.590078" lon="6.858818">
        <ele>2042.0</ele>
        <time>2015-07-09T12:55:04Z</time>
      </trkpt>
      <trkpt lat="44.589993" lon="6.858795">
        <ele>2043.1</ele>
        <time>2015-07-09T12:55:10Z</time>
      </trkpt>
      <trkpt lat="44.589905" lon="6.858783">
        <ele>2044.0</ele>
        <time>2015-07-09T12:55:17Z</time>
      </trkpt>
      <trkpt lat="44.589828" lon="6.858837">
        <ele>2045.0</ele>
        <time>2015-07-09T12:55:24Z</time>
      </trkpt>
      <trkpt lat="44.589707" lon="6.858982">
        <ele>2045.5</ele>
        <time>2015-07-09T12:55:38Z</time>
      </trkpt>
      <trkpt lat="44.589700" lon="6.858995">
        <ele>2045.5</ele>
        <time>2015-07-09T12:55:39Z</time>
      </trkpt>
      <trkpt lat="44.589613" lon="6.859028">
        <ele>2047.1</ele>
        <time>2015-07-09T12:55:48Z</time>
      </trkpt>
      <trkpt lat="44.589528" lon="6.859007">
        <ele>2048.8</ele>
        <time>2015-07-09T12:55:55Z</time>
      </trkpt>
      <trkpt lat="44.589442" lon="6.858992">
        <ele>2050.3</ele>
        <time>2015-07-09T12:56:02Z</time>
      </trkpt>
      <trkpt lat="44.589357" lon="6.858977">
        <ele>2051.1</ele>
        <time>2015-07-09T12:56:09Z</time>
      </trkpt>
      <trkpt lat="44.589273" lon="6.858948">
        <ele>2052.1</ele>
        <time>2015-07-09T12:56:16Z</time>
      </trkpt>
      <trkpt lat="44.589200" lon="6.858910">
        <ele>2053.3</ele>
        <time>2015-07-09T12:56:22Z</time>
      </trkpt>
      <trkpt lat="44.589122" lon="6.858892">
        <ele>2054.1</ele>
        <time>2015-07-09T12:56:28Z</time>
      </trkpt>
      <trkpt lat="44.588973" lon="6.858872">
        <ele>2056.1</ele>
        <time>2015-07-09T12:56:39Z</time>
      </trkpt>
      <trkpt lat="44.588960" lon="6.858872">
        <ele>2056.1</ele>
        <time>2015-07-09T12:56:40Z</time>
      </trkpt>
      <trkpt lat="44.588885" lon="6.858907">
        <ele>2056.8</ele>
        <time>2015-07-09T12:56:50Z</time>
      </trkpt>
      <trkpt lat="44.588803" lon="6.858928">
        <ele>2055.3</ele>
        <time>2015-07-09T12:56:57Z</time>
      </trkpt>
      <trkpt lat="44.588718" lon="6.858938">
        <ele>2056.8</ele>
        <time>2015-07-09T12:57:04Z</time>
      </trkpt>
      <trkpt lat="44.588633" lon="6.858948">
        <ele>2058.3</ele>
        <time>2015-07-09T12:57:11Z</time>
      </trkpt>
      <trkpt lat="44.588555" lon="6.858993">
        <ele>2058.0</ele>
        <time>2015-07-09T12:57:20Z</time>
      </trkpt>
      <trkpt lat="44.588472" lon="6.859000">
        <ele>2059.8</ele>
        <time>2015-07-09T12:57:27Z</time>
      </trkpt>
      <trkpt lat="44.588383" lon="6.858988">
        <ele>2061.1</ele>
        <time>2015-07-09T12:57:35Z</time>
      </trkpt>
      <trkpt lat="44.588237" lon="6.858937">
        <ele>2063.1</ele>
        <time>2015-07-09T12:57:48Z</time>
      </trkpt>
      <trkpt lat="44.588227" lon="6.858927">
        <ele>2063.1</ele>
        <time>2015-07-09T12:57:49Z</time>
      </trkpt>
      <trkpt lat="44.588145" lon="6.858880">
        <ele>2065.8</ele>
        <time>2015-07-09T12:57:56Z</time>
      </trkpt>
      <trkpt lat="44.588067" lon="6.858853">
        <ele>2067.0</ele>
        <time>2015-07-09T12:58:03Z</time>
      </trkpt>
      <trkpt lat="44.587985" lon="6.858820">
        <ele>2068.8</ele>
        <time>2015-07-09T12:58:09Z</time>
      </trkpt>
      <trkpt lat="44.587913" lon="6.858778">
        <ele>2069.3</ele>
        <time>2015-07-09T12:58:14Z</time>
      </trkpt>
      <trkpt lat="44.587832" lon="6.858763">
        <ele>2070.8</ele>
        <time>2015-07-09T12:58:23Z</time>
      </trkpt>
      <trkpt lat="44.587748" lon="6.858793">
        <ele>2072.3</ele>
        <time>2015-07-09T12:58:32Z</time>
      </trkpt>
      <trkpt lat="44.587665" lon="6.858750">
        <ele>2073.3</ele>
        <time>2015-07-09T12:58:40Z</time>
      </trkpt>
      <trkpt lat="44.587510" lon="6.858727">
        <ele>2075.8</ele>
        <time>2015-07-09T12:58:55Z</time>
      </trkpt>
      <trkpt lat="44.587503" lon="6.858722">
        <ele>2075.8</ele>
        <time>2015-07-09T12:58:56Z</time>
      </trkpt>
      <trkpt lat="44.587417" lon="6.858700">
        <ele>2075.8</ele>
        <time>2015-07-09T12:59:04Z</time>
      </trkpt>
      <trkpt lat="44.587330" lon="6.858690">
        <ele>2076.6</ele>
        <time>2015-07-09T12:59:12Z</time>
      </trkpt>
      <trkpt lat="44.587257" lon="6.858762">
        <ele>2078.6</ele>
        <time>2015-07-09T12:59:22Z</time>
      </trkpt>
      <trkpt lat="44.587175" lon="6.858790">
        <ele>2081.6</ele>
        <time>2015-07-09T12:59:33Z</time>
      </trkpt>
      <trkpt lat="44.587020" lon="6.858768">
        <ele>2087.5</ele>
        <time>2015-07-09T12:59:57Z</time>
      </trkpt>
      <trkpt lat="44.587015" lon="6.858768">
        <ele>2087.8</ele>
        <time>2015-07-09T12:59:58Z</time>
      </trkpt>
      <trkpt lat="44.586928" lon="6.858773">
        <ele>2092.3</ele>
        <time>2015-07-09T13:00:10Z</time>
      </trkpt>
      <trkpt lat="44.586877" lon="6.858678">
        <ele>2097.5</ele>
        <time>2015-07-09T13:00:19Z</time>
      </trkpt>
      <trkpt lat="44.586802" lon="6.858630">
        <ele>2102.1</ele>
        <time>2015-07-09T13:00:29Z</time>
      </trkpt>
      <trkpt lat="44.586743" lon="6.858548">
        <ele>2105.0</ele>
        <time>2015-07-09T13:00:39Z</time>
      </trkpt>
      <trkpt lat="44.586658" lon="6.858563">
        <ele>2105.0</ele>
        <time>2015-07-09T13:00:50Z</time>
      </trkpt>
      <trkpt lat="44.586497" lon="6.858542">
        <ele>2105.5</ele>
        <time>2015-07-09T13:01:06Z</time>
      </trkpt>
      <trkpt lat="44.586487" lon="6.858552">
        <ele>2105.8</ele>
        <time>2015-07-09T13:01:07Z</time>
      </trkpt>
      <trkpt lat="44.586403" lon="6.858580">
        <ele>2107.3</ele>
        <time>2015-07-09T13:01:15Z</time>
      </trkpt>
      <trkpt lat="44.586317" lon="6.858575">
        <ele>2108.8</ele>
        <time>2015-07-09T13:01:25Z</time>
      </trkpt>
      <trkpt lat="44.586250" lon="6.858648">
        <ele>2110.8</ele>
        <time>2015-07-09T13:01:37Z</time>
      </trkpt>
      <trkpt lat="44.586168" lon="6.858687">
        <ele>2112.8</ele>
        <time>2015-07-09T13:01:48Z</time>
      </trkpt>
      <trkpt lat="44.586018" lon="6.858777">
        <ele>2118.1</ele>
        <time>2015-07-09T13:02:07Z</time>
      </trkpt>
      <trkpt lat="44.586012" lon="6.858785">
        <ele>2118.3</ele>
        <time>2015-07-09T13:02:08Z</time>
      </trkpt>
      <trkpt lat="44.585967" lon="6.858887">
        <ele>2121.1</ele>
        <time>2015-07-09T13:02:23Z</time>
      </trkpt>
      <trkpt lat="44.585935" lon="6.859000">
        <ele>2124.3</ele>
        <time>2015-07-09T13:02:34Z</time>
      </trkpt>
      <trkpt lat="44.585862" lon="6.859052">
        <ele>2129.3</ele>
        <time>2015-07-09T13:02:43Z</time>
      </trkpt>
      <trkpt lat="44.585782" lon="6.859042">
        <ele>2133.1</ele>
        <time>2015-07-09T13:02:55Z</time>
      </trkpt>
      <trkpt lat="44.585632" lon="6.859093">
        <ele>2132.6</ele>
        <time>2015-07-09T13:03:13Z</time>
      </trkpt>
      <trkpt lat="44.585620" lon="6.859088">
        <ele>2132.6</ele>
        <time>2015-07-09T13:03:14Z</time>
      </trkpt>
      <trkpt lat="44.585555" lon="6.859168">
        <ele>2131.0</ele>
        <time>2015-07-09T13:03:24Z</time>
      </trkpt>
      <trkpt lat="44.585518" lon="6.859283">
        <ele>2130.1</ele>
        <time>2015-07-09T13:03:35Z</time>
      </trkpt>
      <trkpt lat="44.585525" lon="6.859403">
        <ele>2132.0</ele>
        <time>2015-07-09T13:03:55Z</time>
      </trkpt>
      <trkpt lat="44.585430" lon="6.859463">
        <ele>2139.6</ele>
        <time>2015-07-09T13:04:19Z</time>
      </trkpt>
      <trkpt lat="44.585422" lon="6.859460">
        <ele>2139.8</ele>
        <time>2015-07-09T13:04:20Z</time>
      </trkpt>
      <trkpt lat="44.585347" lon="6.859413">
        <ele>2144.1</ele>
        <time>2015-07-09T13:04:40Z</time>
      </trkpt>
      <trkpt lat="44.585268" lon="6.859472">
        <ele>2147.8</ele>
        <time>2015-07-09T13:05:02Z</time>
      </trkpt>
      <trkpt lat="44.585168" lon="6.859395">
        <ele>2152.8</ele>
        <time>2015-07-09T13:05:25Z</time>
      </trkpt>
      <trkpt lat="44.585107" lon="6.859433">
        <ele>2156.3</ele>
        <time>2015-07-09T13:05:26Z</time>
      </trkpt>
      <trkpt lat="44.584968" lon="6.859402">
        <ele>2156.3</ele>
        <time>2015-07-09T13:06:41Z</time>
      </trkpt>
      <trkpt lat="44.584975" lon="6.859422">
        <ele>2156.5</ele>
        <time>2015-07-09T13:06:42Z</time>
      </trkpt>
      <trkpt lat="44.584972" lon="6.859537">
        <ele>2158.3</ele>
        <time>2015-07-09T13:07:19Z</time>
      </trkpt>
      <trkpt lat="44.584885" lon="6.859538">
        <ele>2161.6</ele>
        <time>2015-07-09T13:07:31Z</time>
      </trkpt>
      <trkpt lat="44.584802" lon="6.859517">
        <ele>2165.5</ele>
        <time>2015-07-09T13:07:41Z</time>
      </trkpt>
      <trkpt lat="44.584722" lon="6.859490">
        <ele>2168.3</ele>
        <time>2015-07-09T13:07:50Z</time>
      </trkpt>
      <trkpt lat="44.584575" lon="6.859378">
        <ele>2172.8</ele>
        <time>2015-07-09T13:08:13Z</time>
      </trkpt>
      <trkpt lat="44.584567" lon="6.859388">
        <ele>2172.5</ele>
        <time>2015-07-09T13:08:14Z</time>
      </trkpt>
      <trkpt lat="44.584478" lon="6.859390">
        <ele>2175.3</ele>
        <time>2015-07-09T13:08:25Z</time>
      </trkpt>
      <trkpt lat="44.584398" lon="6.859355">
        <ele>2175.8</ele>
        <time>2015-07-09T13:08:33Z</time>
      </trkpt>
      <trkpt lat="44.584332" lon="6.859430">
        <ele>2174.8</ele>
        <time>2015-07-09T13:08:45Z</time>
      </trkpt>
      <trkpt lat="44.584250" lon="6.859480">
        <ele>2175.0</ele>
        <time>2015-07-09T13:08:53Z</time>
      </trkpt>
      <trkpt lat="44.584183" lon="6.859560">
        <ele>2175.3</ele>
        <time>2015-07-09T13:09:01Z</time>
      </trkpt>
      <trkpt lat="44.584037" lon="6.859648">
        <ele>2173.6</ele>
        <time>2015-07-09T13:09:16Z</time>
      </trkpt>
      <trkpt lat="44.584027" lon="6.859657">
        <ele>2173.6</ele>
        <time>2015-07-09T13:09:17Z</time>
      </trkpt>
      <trkpt lat="44.583955" lon="6.859705">
        <ele>2173.3</ele>
        <time>2015-07-09T13:09:25Z</time>
      </trkpt>
      <trkpt lat="44.583890" lon="6.859785">
        <ele>2173.1</ele>
        <time>2015-07-09T13:09:33Z</time>
      </trkpt>
      <trkpt lat="44.583823" lon="6.859843">
        <ele>2172.8</ele>
        <time>2015-07-09T13:09:39Z</time>
      </trkpt>
      <trkpt lat="44.583747" lon="6.859880">
        <ele>2171.3</ele>
        <time>2015-07-09T13:09:52Z</time>
      </trkpt>
      <trkpt lat="44.583665" lon="6.859930">
        <ele>2170.0</ele>
        <time>2015-07-09T13:10:04Z</time>
      </trkpt>
      <trkpt lat="44.583553" lon="6.860080">
        <ele>2167.1</ele>
        <time>2015-07-09T13:10:20Z</time>
      </trkpt>
      <trkpt lat="44.583545" lon="6.860083">
        <ele>2166.8</ele>
        <time>2015-07-09T13:10:21Z</time>
      </trkpt>
      <trkpt lat="44.583460" lon="6.860115">
        <ele>2166.1</ele>
        <time>2015-07-09T13:10:30Z</time>
      </trkpt>
      <trkpt lat="44.583410" lon="6.860218">
        <ele>2166.1</ele>
        <time>2015-07-09T13:10:40Z</time>
      </trkpt>
      <trkpt lat="44.583335" lon="6.860168">
        <ele>2168.1</ele>
        <time>2015-07-09T13:10:48Z</time>
      </trkpt>
      <trkpt lat="44.583265" lon="6.860112">
        <ele>2169.8</ele>
        <time>2015-07-09T13:10:55Z</time>
      </trkpt>
      <trkpt lat="44.583213" lon="6.860025">
        <ele>2170.1</ele>
        <time>2015-07-09T13:11:03Z</time>
      </trkpt>
      <trkpt lat="44.583138" lon="6.859997">
        <ele>2170.8</ele>
        <time>2015-07-09T13:11:10Z</time>
      </trkpt>
      <trkpt lat="44.582973" lon="6.859978">
        <ele>2169.1</ele>
        <time>2015-07-09T13:11:25Z</time>
      </trkpt>
      <trkpt lat="44.582965" lon="6.859983">
        <ele>2169.0</ele>
        <time>2015-07-09T13:11:26Z</time>
      </trkpt>
      <trkpt lat="44.582890" lon="6.860050">
        <ele>2166.6</ele>
        <time>2015-07-09T13:11:34Z</time>
      </trkpt>
      <trkpt lat="44.582820" lon="6.860127">
        <ele>2163.8</ele>
        <time>2015-07-09T13:11:42Z</time>
      </trkpt>
      <trkpt lat="44.582767" lon="6.860215">
        <ele>2159.8</ele>
        <time>2015-07-09T13:11:50Z</time>
      </trkpt>
      <trkpt lat="44.582705" lon="6.860132">
        <ele>2158.1</ele>
        <time>2015-07-09T13:12:06Z</time>
      </trkpt>
      <trkpt lat="44.582647" lon="6.860045">
        <ele>2159.1</ele>
        <time>2015-07-09T13:12:16Z</time>
      </trkpt>
      <trkpt lat="44.582528" lon="6.859882">
        <ele>2162.3</ele>
        <time>2015-07-09T13:12:31Z</time>
      </trkpt>
      <trkpt lat="44.582522" lon="6.859870">
        <ele>2162.5</ele>
        <time>2015-07-09T13:12:32Z</time>
      </trkpt>
      <trkpt lat="44.582450" lon="6.859812">
        <ele>2164.1</ele>
        <time>2015-07-09T13:12:39Z</time>
      </trkpt>
      <trkpt lat="44.582367" lon="6.859768">
        <ele>2165.1</ele>
        <time>2015-07-09T13:12:48Z</time>
      </trkpt>
      <trkpt lat="44.582290" lon="6.859715">
        <ele>2167.1</ele>
        <time>2015-07-09T13:12:56Z</time>
      </trkpt>
      <trkpt lat="44.582208" lon="6.859663">
        <ele>2168.1</ele>
        <time>2015-07-09T13:13:05Z</time>
      </trkpt>
      <trkpt lat="44.582138" lon="6.859598">
        <ele>2169.3</ele>
        <time>2015-07-09T13:13:12Z</time>
      </trkpt>
      <trkpt lat="44.582053" lon="6.859583">
        <ele>2171.3</ele>
        <time>2015-07-09T13:13:19Z</time>
      </trkpt>
      <trkpt lat="44.581895" lon="6.859560">
        <ele>2173.5</ele>
        <time>2015-07-09T13:13:35Z</time>
      </trkpt>
      <trkpt lat="44.581885" lon="6.859557">
        <ele>2173.8</ele>
        <time>2015-07-09T13:13:36Z</time>
      </trkpt>
      <trkpt lat="44.581800" lon="6.859527">
        <ele>2176.1</ele>
        <time>2015-07-09T13:13:44Z</time>
      </trkpt>
      <trkpt lat="44.581738" lon="6.859440">
        <ele>2178.6</ele>
        <time>2015-07-09T13:13:52Z</time>
      </trkpt>
      <trkpt lat="44.581667" lon="6.859395">
        <ele>2180.8</ele>
        <time>2015-07-09T13:13:59Z</time>
      </trkpt>
      <trkpt lat="44.581587" lon="6.859385">
        <ele>2181.3</ele>
        <time>2015-07-09T13:14:06Z</time>
      </trkpt>
      <trkpt lat="44.581500" lon="6.859390">
        <ele>2182.5</ele>
        <time>2015-07-09T13:14:13Z</time>
      </trkpt>
      <trkpt lat="44.581413" lon="6.859388">
        <ele>2182.8</ele>
        <time>2015-07-09T13:14:20Z</time>
      </trkpt>
      <trkpt lat="44.581333" lon="6.859387">
        <ele>2183.3</ele>
        <time>2015-07-09T13:14:27Z</time>
      </trkpt>
      <trkpt lat="44.581178" lon="6.859392">
        <ele>2186.1</ele>
        <time>2015-07-09T13:14:41Z</time>
      </trkpt>
      <trkpt lat="44.581167" lon="6.859390">
        <ele>2186.3</ele>
        <time>2015-07-09T13:14:42Z</time>
      </trkpt>
      <trkpt lat="44.581080" lon="6.859410">
        <ele>2187.0</ele>
        <time>2015-07-09T13:14:49Z</time>
      </trkpt>
      <trkpt lat="44.581007" lon="6.859468">
        <ele>2187.8</ele>
        <time>2015-07-09T13:14:56Z</time>
      </trkpt>
      <trkpt lat="44.580932" lon="6.859510">
        <ele>2187.1</ele>
        <time>2015-07-09T13:15:03Z</time>
      </trkpt>
      <trkpt lat="44.580852" lon="6.859518">
        <ele>2188.1</ele>
        <time>2015-07-09T13:15:10Z</time>
      </trkpt>
      <trkpt lat="44.580765" lon="6.859508">
        <ele>2189.8</ele>
        <time>2015-07-09T13:15:17Z</time>
      </trkpt>
      <trkpt lat="44.580680" lon="6.859505">
        <ele>2191.8</ele>
        <time>2015-07-09T13:15:24Z</time>
      </trkpt>
      <trkpt lat="44.580593" lon="6.859520">
        <ele>2193.5</ele>
        <time>2015-07-09T13:15:31Z</time>
      </trkpt>
      <trkpt lat="44.580440" lon="6.859563">
        <ele>2196.3</ele>
        <time>2015-07-09T13:15:45Z</time>
      </trkpt>
      <trkpt lat="44.580433" lon="6.859573">
        <ele>2196.5</ele>
        <time>2015-07-09T13:15:46Z</time>
      </trkpt>
      <trkpt lat="44.580347" lon="6.859600">
        <ele>2199.0</ele>
        <time>2015-07-09T13:16:02Z</time>
      </trkpt>
      <trkpt lat="44.580265" lon="6.859578">
        <ele>2201.8</ele>
        <time>2015-07-09T13:16:11Z</time>
      </trkpt>
      <trkpt lat="44.580182" lon="6.859565">
        <ele>2203.3</ele>
        <time>2015-07-09T13:16:18Z</time>
      </trkpt>
      <trkpt lat="44.580100" lon="6.859585">
        <ele>2206.1</ele>
        <time>2015-07-09T13:16:25Z</time>
      </trkpt>
      <trkpt lat="44.580015" lon="6.859625">
        <ele>2208.6</ele>
        <time>2015-07-09T13:16:33Z</time>
      </trkpt>
      <trkpt lat="44.579858" lon="6.859642">
        <ele>2212.3</ele>
        <time>2015-07-09T13:16:47Z</time>
      </trkpt>
      <trkpt lat="44.579848" lon="6.859643">
        <ele>2212.3</ele>
        <time>2015-07-09T13:16:48Z</time>
      </trkpt>
      <trkpt lat="44.579772" lon="6.859682">
        <ele>2214.0</ele>
        <time>2015-07-09T13:16:57Z</time>
      </trkpt>
      <trkpt lat="44.579692" lon="6.859677">
        <ele>2215.3</ele>
        <time>2015-07-09T13:17:05Z</time>
      </trkpt>
      <trkpt lat="44.579607" lon="6.859710">
        <ele>2217.1</ele>
        <time>2015-07-09T13:17:16Z</time>
      </trkpt>
      <trkpt lat="44.579547" lon="6.859788">
        <ele>2218.8</ele>
        <time>2015-07-09T13:17:24Z</time>
      </trkpt>
      <trkpt lat="44.579485" lon="6.859863">
        <ele>2219.8</ele>
        <time>2015-07-09T13:17:31Z</time>
      </trkpt>
      <trkpt lat="44.579417" lon="6.859923">
        <ele>2221.1</ele>
        <time>2015-07-09T13:17:38Z</time>
      </trkpt>
      <trkpt lat="44.579263" lon="6.859982">
        <ele>2225.6</ele>
        <time>2015-07-09T13:17:56Z</time>
      </trkpt>
      <trkpt lat="44.579252" lon="6.859987">
        <ele>2225.8</ele>
        <time>2015-07-09T13:17:57Z</time>
      </trkpt>
      <trkpt lat="44.579197" lon="6.860068">
        <ele>2224.1</ele>
        <time>2015-07-09T13:18:18Z</time>
      </trkpt>
      <trkpt lat="44.579115" lon="6.860112">
        <ele>2226.5</ele>
        <time>2015-07-09T13:18:37Z</time>
      </trkpt>
      <trkpt lat="44.579040" lon="6.860160">
        <ele>2228.6</ele>
        <time>2015-07-09T13:18:44Z</time>
      </trkpt>
      <trkpt lat="44.578967" lon="6.860215">
        <ele>2230.1</ele>
        <time>2015-07-09T13:18:51Z</time>
      </trkpt>
      <trkpt lat="44.578900" lon="6.860278">
        <ele>2231.5</ele>
        <time>2015-07-09T13:18:58Z</time>
      </trkpt>
      <trkpt lat="44.578787" lon="6.860433">
        <ele>2233.6</ele>
        <time>2015-07-09T13:19:11Z</time>
      </trkpt>
      <trkpt lat="44.578777" lon="6.860445">
        <ele>2233.8</ele>
        <time>2015-07-09T13:19:12Z</time>
      </trkpt>
      <trkpt lat="44.578717" lon="6.860523">
        <ele>2234.6</ele>
        <time>2015-07-09T13:19:19Z</time>
      </trkpt>
      <trkpt lat="44.578645" lon="6.860593">
        <ele>2235.5</ele>
        <time>2015-07-09T13:19:27Z</time>
      </trkpt>
      <trkpt lat="44.578565" lon="6.860637">
        <ele>2237.1</ele>
        <time>2015-07-09T13:19:35Z</time>
      </trkpt>
      <trkpt lat="44.578495" lon="6.860712">
        <ele>2237.8</ele>
        <time>2015-07-09T13:19:44Z</time>
      </trkpt>
      <trkpt lat="44.578425" lon="6.860780">
        <ele>2238.3</ele>
        <time>2015-07-09T13:19:52Z</time>
      </trkpt>
      <trkpt lat="44.578348" lon="6.860835">
        <ele>2238.6</ele>
        <time>2015-07-09T13:19:59Z</time>
      </trkpt>
      <trkpt lat="44.578197" lon="6.860877">
        <ele>2240.8</ele>
        <time>2015-07-09T13:20:14Z</time>
      </trkpt>
      <trkpt lat="44.578187" lon="6.860882">
        <ele>2241.1</ele>
        <time>2015-07-09T13:20:15Z</time>
      </trkpt>
      <trkpt lat="44.578105" lon="6.860875">
        <ele>2242.6</ele>
        <time>2015-07-09T13:20:24Z</time>
      </trkpt>
      <trkpt lat="44.578027" lon="6.860912">
        <ele>2243.8</ele>
        <time>2015-07-09T13:20:33Z</time>
      </trkpt>
      <trkpt lat="44.577943" lon="6.860902">
        <ele>2244.8</ele>
        <time>2015-07-09T13:20:42Z</time>
      </trkpt>
      <trkpt lat="44.577863" lon="6.860912">
        <ele>2246.3</ele>
        <time>2015-07-09T13:20:49Z</time>
      </trkpt>
      <trkpt lat="44.577783" lon="6.860960">
        <ele>2249.6</ele>
        <time>2015-07-09T13:21:00Z</time>
      </trkpt>
      <trkpt lat="44.577627" lon="6.861010">
        <ele>2254.3</ele>
        <time>2015-07-09T13:21:19Z</time>
      </trkpt>
      <trkpt lat="44.577618" lon="6.861012">
        <ele>2254.6</ele>
        <time>2015-07-09T13:21:20Z</time>
      </trkpt>
      <trkpt lat="44.577533" lon="6.861050">
        <ele>2256.1</ele>
        <time>2015-07-09T13:21:29Z</time>
      </trkpt>
      <trkpt lat="44.577460" lon="6.861095">
        <ele>2257.5</ele>
        <time>2015-07-09T13:21:35Z</time>
      </trkpt>
      <trkpt lat="44.577390" lon="6.861145">
        <ele>2259.1</ele>
        <time>2015-07-09T13:21:42Z</time>
      </trkpt>
      <trkpt lat="44.577308" lon="6.861197">
        <ele>2261.0</ele>
        <time>2015-07-09T13:21:50Z</time>
      </trkpt>
      <trkpt lat="44.577235" lon="6.861255">
        <ele>2262.5</ele>
        <time>2015-07-09T13:21:59Z</time>
      </trkpt>
      <trkpt lat="44.577165" lon="6.861333">
        <ele>2263.0</ele>
        <time>2015-07-09T13:22:09Z</time>
      </trkpt>
      <trkpt lat="44.577032" lon="6.861445">
        <ele>2263.8</ele>
        <time>2015-07-09T13:22:23Z</time>
      </trkpt>
      <trkpt lat="44.577023" lon="6.861453">
        <ele>2264.0</ele>
        <time>2015-07-09T13:22:24Z</time>
      </trkpt>
      <trkpt lat="44.576957" lon="6.861515">
        <ele>2264.8</ele>
        <time>2015-07-09T13:22:32Z</time>
      </trkpt>
      <trkpt lat="44.576823" lon="6.861647">
        <ele>2266.8</ele>
        <time>2015-07-09T13:23:26Z</time>
      </trkpt>
      <trkpt lat="44.576815" lon="6.861653">
        <ele>2267.0</ele>
        <time>2015-07-09T13:23:27Z</time>
      </trkpt>
      <trkpt lat="44.576757" lon="6.861740">
        <ele>2268.6</ele>
        <time>2015-07-09T13:23:36Z</time>
      </trkpt>
      <trkpt lat="44.576688" lon="6.861943">
        <ele>2269.1</ele>
        <time>2015-07-09T13:24:33Z</time>
      </trkpt>
      <trkpt lat="44.576683" lon="6.861955">
        <ele>2268.8</ele>
        <time>2015-07-09T13:24:34Z</time>
      </trkpt>
      <trkpt lat="44.576635" lon="6.862060">
        <ele>2269.6</ele>
        <time>2015-07-09T13:24:48Z</time>
      </trkpt>
      <trkpt lat="44.576557" lon="6.862113">
        <ele>2269.3</ele>
        <time>2015-07-09T13:25:22Z</time>
      </trkpt>
      <trkpt lat="44.576480" lon="6.862158">
        <ele>2270.3</ele>
        <time>2015-07-09T13:25:31Z</time>
      </trkpt>
      <trkpt lat="44.576355" lon="6.862302">
        <ele>2273.6</ele>
        <time>2015-07-09T13:25:48Z</time>
      </trkpt>
      <trkpt lat="44.576350" lon="6.862312">
        <ele>2273.8</ele>
        <time>2015-07-09T13:25:49Z</time>
      </trkpt>
      <trkpt lat="44.576277" lon="6.862378">
        <ele>2275.6</ele>
        <time>2015-07-09T13:25:57Z</time>
      </trkpt>
      <trkpt lat="44.576195" lon="6.862430">
        <ele>2277.8</ele>
        <time>2015-07-09T13:26:05Z</time>
      </trkpt>
      <trkpt lat="44.576137" lon="6.862508">
        <ele>2279.3</ele>
        <time>2015-07-09T13:26:12Z</time>
      </trkpt>
      <trkpt lat="44.576075" lon="6.862580">
        <ele>2279.6</ele>
        <time>2015-07-09T13:26:19Z</time>
      </trkpt>
      <trkpt lat="44.576022" lon="6.862665">
        <ele>2279.6</ele>
        <time>2015-07-09T13:26:26Z</time>
      </trkpt>
      <trkpt lat="44.575920" lon="6.862822">
        <ele>2277.8</ele>
        <time>2015-07-09T13:26:50Z</time>
      </trkpt>
      <trkpt lat="44.575913" lon="6.862838">
        <ele>2277.8</ele>
        <time>2015-07-09T13:26:51Z</time>
      </trkpt>
      <trkpt lat="44.575872" lon="6.862950">
        <ele>2277.1</ele>
        <time>2015-07-09T13:27:00Z</time>
      </trkpt>
      <trkpt lat="44.575813" lon="6.863043">
        <ele>2275.3</ele>
        <time>2015-07-09T13:27:08Z</time>
      </trkpt>
      <trkpt lat="44.575763" lon="6.863148">
        <ele>2274.5</ele>
        <time>2015-07-09T13:27:16Z</time>
      </trkpt>
      <trkpt lat="44.575732" lon="6.863263">
        <ele>2272.8</ele>
        <time>2015-07-09T13:27:23Z</time>
      </trkpt>
      <trkpt lat="44.575683" lon="6.863355">
        <ele>2271.8</ele>
        <time>2015-07-09T13:27:30Z</time>
      </trkpt>
      <trkpt lat="44.575632" lon="6.863437">
        <ele>2272.1</ele>
        <time>2015-07-09T13:27:37Z</time>
      </trkpt>
      <trkpt lat="44.575583" lon="6.863527">
        <ele>2271.6</ele>
        <time>2015-07-09T13:27:43Z</time>
      </trkpt>
      <trkpt lat="44.575440" lon="6.863490">
        <ele>2272.8</ele>
        <time>2015-07-09T13:27:55Z</time>
      </trkpt>
      <trkpt lat="44.575425" lon="6.863487">
        <ele>2272.8</ele>
        <time>2015-07-09T13:27:56Z</time>
      </trkpt>
      <trkpt lat="44.575345" lon="6.863480">
        <ele>2272.6</ele>
        <time>2015-07-09T13:28:07Z</time>
      </trkpt>
      <trkpt lat="44.575268" lon="6.863518">
        <ele>2272.3</ele>
        <time>2015-07-09T13:28:14Z</time>
      </trkpt>
      <trkpt lat="44.575202" lon="6.863578">
        <ele>2272.6</ele>
        <time>2015-07-09T13:28:21Z</time>
      </trkpt>
      <trkpt lat="44.575133" lon="6.863637">
        <ele>2273.3</ele>
        <time>2015-07-09T13:28:28Z</time>
      </trkpt>
      <trkpt lat="44.575062" lon="6.863692">
        <ele>2274.5</ele>
        <time>2015-07-09T13:28:35Z</time>
      </trkpt>
      <trkpt lat="44.574977" lon="6.863708">
        <ele>2276.1</ele>
        <time>2015-07-09T13:28:43Z</time>
      </trkpt>
      <trkpt lat="44.574828" lon="6.863782">
        <ele>2277.6</ele>
        <time>2015-07-09T13:28:57Z</time>
      </trkpt>
      <trkpt lat="44.574818" lon="6.863792">
        <ele>2277.8</ele>
        <time>2015-07-09T13:28:58Z</time>
      </trkpt>
      <trkpt lat="44.574755" lon="6.863863">
        <ele>2278.6</ele>
        <time>2015-07-09T13:29:05Z</time>
      </trkpt>
      <trkpt lat="44.574688" lon="6.863932">
        <ele>2279.0</ele>
        <time>2015-07-09T13:29:12Z</time>
      </trkpt>
      <trkpt lat="44.574618" lon="6.863992">
        <ele>2278.3</ele>
        <time>2015-07-09T13:29:24Z</time>
      </trkpt>
      <trkpt lat="44.574538" lon="6.864035">
        <ele>2279.1</ele>
        <time>2015-07-09T13:29:31Z</time>
      </trkpt>
      <trkpt lat="44.574462" lon="6.864065">
        <ele>2280.0</ele>
        <time>2015-07-09T13:29:37Z</time>
      </trkpt>
      <trkpt lat="44.574378" lon="6.864102">
        <ele>2281.6</ele>
        <time>2015-07-09T13:29:45Z</time>
      </trkpt>
      <trkpt lat="44.574213" lon="6.864137">
        <ele>2285.3</ele>
        <time>2015-07-09T13:30:02Z</time>
      </trkpt>
      <trkpt lat="44.574210" lon="6.864127">
        <ele>2285.5</ele>
        <time>2015-07-09T13:30:03Z</time>
      </trkpt>
      <trkpt lat="44.574198" lon="6.864002">
        <ele>2286.3</ele>
        <time>2015-07-09T13:30:11Z</time>
      </trkpt>
      <trkpt lat="44.574125" lon="6.863938">
        <ele>2288.8</ele>
        <time>2015-07-09T13:30:30Z</time>
      </trkpt>
      <trkpt lat="44.574045" lon="6.863907">
        <ele>2290.1</ele>
        <time>2015-07-09T13:30:40Z</time>
      </trkpt>
      <trkpt lat="44.573968" lon="6.863940">
        <ele>2290.8</ele>
        <time>2015-07-09T13:30:47Z</time>
      </trkpt>
      <trkpt lat="44.573890" lon="6.863968">
        <ele>2291.3</ele>
        <time>2015-07-09T13:30:53Z</time>
      </trkpt>
      <trkpt lat="44.573758" lon="6.864043">
        <ele>2292.6</ele>
        <time>2015-07-09T13:31:04Z</time>
      </trkpt>
      <trkpt lat="44.573748" lon="6.864055">
        <ele>2292.6</ele>
        <time>2015-07-09T13:31:05Z</time>
      </trkpt>
      <trkpt lat="44.573673" lon="6.864117">
        <ele>2292.8</ele>
        <time>2015-07-09T13:31:12Z</time>
      </trkpt>
      <trkpt lat="44.573598" lon="6.864172">
        <ele>2293.5</ele>
        <time>2015-07-09T13:31:19Z</time>
      </trkpt>
      <trkpt lat="44.573513" lon="6.864167">
        <ele>2294.3</ele>
        <time>2015-07-09T13:31:26Z</time>
      </trkpt>
      <trkpt lat="44.573432" lon="6.864162">
        <ele>2295.6</ele>
        <time>2015-07-09T13:31:33Z</time>
      </trkpt>
      <trkpt lat="44.573348" lon="6.864172">
        <ele>2297.0</ele>
        <time>2015-07-09T13:31:40Z</time>
      </trkpt>
      <trkpt lat="44.573262" lon="6.864183">
        <ele>2298.6</ele>
        <time>2015-07-09T13:31:47Z</time>
      </trkpt>
      <trkpt lat="44.573190" lon="6.864232">
        <ele>2300.1</ele>
        <time>2015-07-09T13:31:54Z</time>
      </trkpt>
      <trkpt lat="44.573040" lon="6.864310">
        <ele>2303.6</ele>
        <time>2015-07-09T13:32:09Z</time>
      </trkpt>
      <trkpt lat="44.573028" lon="6.864317">
        <ele>2303.8</ele>
        <time>2015-07-09T13:32:10Z</time>
      </trkpt>
      <trkpt lat="44.572955" lon="6.864367">
        <ele>2305.1</ele>
        <time>2015-07-09T13:32:17Z</time>
      </trkpt>
      <trkpt lat="44.572882" lon="6.864408">
        <ele>2306.1</ele>
        <time>2015-07-09T13:32:24Z</time>
      </trkpt>
      <trkpt lat="44.572807" lon="6.864472">
        <ele>2307.0</ele>
        <time>2015-07-09T13:32:32Z</time>
      </trkpt>
      <trkpt lat="44.572735" lon="6.864540">
        <ele>2307.8</ele>
        <time>2015-07-09T13:32:40Z</time>
      </trkpt>
      <trkpt lat="44.572662" lon="6.864607">
        <ele>2309.1</ele>
        <time>2015-07-09T13:32:48Z</time>
      </trkpt>
      <trkpt lat="44.572605" lon="6.864692">
        <ele>2310.6</ele>
        <time>2015-07-09T13:32:56Z</time>
      </trkpt>
      <trkpt lat="44.572530" lon="6.864755">
        <ele>2312.1</ele>
        <time>2015-07-09T13:33:04Z</time>
      </trkpt>
      <trkpt lat="44.572423" lon="6.864913">
        <ele>2314.8</ele>
        <time>2015-07-09T13:33:17Z</time>
      </trkpt>
      <trkpt lat="44.572417" lon="6.864928">
        <ele>2315.1</ele>
        <time>2015-07-09T13:33:18Z</time>
      </trkpt>
      <trkpt lat="44.572353" lon="6.865017">
        <ele>2317.1</ele>
        <time>2015-07-09T13:33:25Z</time>
      </trkpt>
      <trkpt lat="44.572300" lon="6.865108">
        <ele>2319.1</ele>
        <time>2015-07-09T13:33:32Z</time>
      </trkpt>
      <trkpt lat="44.572242" lon="6.865187">
        <ele>2319.6</ele>
        <time>2015-07-09T13:33:38Z</time>
      </trkpt>
      <trkpt lat="44.572190" lon="6.865277">
        <ele>2319.5</ele>
        <time>2015-07-09T13:33:44Z</time>
      </trkpt>
      <trkpt lat="44.572180" lon="6.865395">
        <ele>2318.1</ele>
        <time>2015-07-09T13:34:05Z</time>
      </trkpt>
      <trkpt lat="44.572167" lon="6.865510">
        <ele>2318.8</ele>
        <time>2015-07-09T13:34:12Z</time>
      </trkpt>
      <trkpt lat="44.572108" lon="6.865705">
        <ele>2320.1</ele>
        <time>2015-07-09T13:34:25Z</time>
      </trkpt>
      <trkpt lat="44.572102" lon="6.865722">
        <ele>2320.3</ele>
        <time>2015-07-09T13:34:26Z</time>
      </trkpt>
      <trkpt lat="44.572083" lon="6.865838">
        <ele>2321.1</ele>
        <time>2015-07-09T13:34:33Z</time>
      </trkpt>
      <trkpt lat="44.572065" lon="6.865960">
        <ele>2322.1</ele>
        <time>2015-07-09T13:34:40Z</time>
      </trkpt>
      <trkpt lat="44.572048" lon="6.866078">
        <ele>2322.8</ele>
        <time>2015-07-09T13:34:47Z</time>
      </trkpt>
      <trkpt lat="44.572037" lon="6.866200">
        <ele>2323.5</ele>
        <time>2015-07-09T13:34:54Z</time>
      </trkpt>
      <trkpt lat="44.572013" lon="6.866312">
        <ele>2324.1</ele>
        <time>2015-07-09T13:35:01Z</time>
      </trkpt>
      <trkpt lat="44.571978" lon="6.866423">
        <ele>2325.0</ele>
        <time>2015-07-09T13:35:07Z</time>
      </trkpt>
      <trkpt lat="44.571938" lon="6.866645">
        <ele>2326.5</ele>
        <time>2015-07-09T13:35:31Z</time>
      </trkpt>
      <trkpt lat="44.571935" lon="6.866663">
        <ele>2326.6</ele>
        <time>2015-07-09T13:35:32Z</time>
      </trkpt>
      <trkpt lat="44.571927" lon="6.866772">
        <ele>2325.3</ele>
        <time>2015-07-09T13:35:49Z</time>
      </trkpt>
      <trkpt lat="44.571932" lon="6.866892">
        <ele>2324.8</ele>
        <time>2015-07-09T13:35:57Z</time>
      </trkpt>
      <trkpt lat="44.571885" lon="6.866997">
        <ele>2326.1</ele>
        <time>2015-07-09T13:36:07Z</time>
      </trkpt>
      <trkpt lat="44.571842" lon="6.867103">
        <ele>2328.0</ele>
        <time>2015-07-09T13:36:16Z</time>
      </trkpt>
      <trkpt lat="44.571822" lon="6.867217">
        <ele>2328.6</ele>
        <time>2015-07-09T13:36:23Z</time>
      </trkpt>
      <trkpt lat="44.571765" lon="6.867423">
        <ele>2330.3</ele>
        <time>2015-07-09T13:36:36Z</time>
      </trkpt>
      <trkpt lat="44.571758" lon="6.867438">
        <ele>2330.3</ele>
        <time>2015-07-09T13:36:37Z</time>
      </trkpt>
      <trkpt lat="44.571710" lon="6.867530">
        <ele>2331.8</ele>
        <time>2015-07-09T13:36:44Z</time>
      </trkpt>
      <trkpt lat="44.571640" lon="6.867608">
        <ele>2333.3</ele>
        <time>2015-07-09T13:36:52Z</time>
      </trkpt>
      <trkpt lat="44.571568" lon="6.867672">
        <ele>2334.5</ele>
        <time>2015-07-09T13:36:59Z</time>
      </trkpt>
      <trkpt lat="44.571510" lon="6.867762">
        <ele>2335.3</ele>
        <time>2015-07-09T13:37:06Z</time>
      </trkpt>
      <trkpt lat="44.571465" lon="6.867858">
        <ele>2335.5</ele>
        <time>2015-07-09T13:37:13Z</time>
      </trkpt>
      <trkpt lat="44.571418" lon="6.867963">
        <ele>2336.5</ele>
        <time>2015-07-09T13:37:20Z</time>
      </trkpt>
      <trkpt lat="44.571370" lon="6.868062">
        <ele>2337.6</ele>
        <time>2015-07-09T13:37:27Z</time>
      </trkpt>
      <trkpt lat="44.571282" lon="6.868230">
        <ele>2339.8</ele>
        <time>2015-07-09T13:37:39Z</time>
      </trkpt>
      <trkpt lat="44.571278" lon="6.868248">
        <ele>2340.1</ele>
        <time>2015-07-09T13:37:40Z</time>
      </trkpt>
      <trkpt lat="44.571227" lon="6.868338">
        <ele>2341.1</ele>
        <time>2015-07-09T13:37:48Z</time>
      </trkpt>
      <trkpt lat="44.571163" lon="6.868410">
        <ele>2341.3</ele>
        <time>2015-07-09T13:37:55Z</time>
      </trkpt>
      <trkpt lat="44.571095" lon="6.868480">
        <ele>2341.0</ele>
        <time>2015-07-09T13:38:13Z</time>
      </trkpt>
      <trkpt lat="44.571037" lon="6.868567">
        <ele>2341.8</ele>
        <time>2015-07-09T13:38:20Z</time>
      </trkpt>
      <trkpt lat="44.570980" lon="6.868645">
        <ele>2342.6</ele>
        <time>2015-07-09T13:38:26Z</time>
      </trkpt>
      <trkpt lat="44.570850" lon="6.868783">
        <ele>2344.8</ele>
        <time>2015-07-09T13:38:41Z</time>
      </trkpt>
      <trkpt lat="44.570840" lon="6.868790">
        <ele>2344.8</ele>
        <time>2015-07-09T13:38:42Z</time>
      </trkpt>
      <trkpt lat="44.570758" lon="6.868755">
        <ele>2344.3</ele>
        <time>2015-07-09T13:39:15Z</time>
      </trkpt>
      <trkpt lat="44.570678" lon="6.868790">
        <ele>2345.5</ele>
        <time>2015-07-09T13:39:23Z</time>
      </trkpt>
      <trkpt lat="44.570548" lon="6.868942">
        <ele>2347.3</ele>
        <time>2015-07-09T13:39:49Z</time>
      </trkpt>
      <trkpt lat="44.570545" lon="6.868942">
        <ele>2347.5</ele>
        <time>2015-07-09T13:39:50Z</time>
      </trkpt>
      <trkpt lat="44.570460" lon="6.868905">
        <ele>2347.8</ele>
        <time>2015-07-09T13:40:51Z</time>
      </trkpt>
      <trkpt lat="44.570320" lon="6.869015">
        <ele>2352.8</ele>
        <time>2015-07-09T13:41:31Z</time>
      </trkpt>
      <trkpt lat="44.570317" lon="6.869017">
        <ele>2352.8</ele>
        <time>2015-07-09T13:41:32Z</time>
      </trkpt>
      <trkpt lat="44.570238" lon="6.869075">
        <ele>2355.8</ele>
        <time>2015-07-09T13:41:50Z</time>
      </trkpt>
      <trkpt lat="44.570168" lon="6.869145">
        <ele>2358.6</ele>
        <time>2015-07-09T13:42:06Z</time>
      </trkpt>
      <trkpt lat="44.570085" lon="6.869158">
        <ele>2361.0</ele>
        <time>2015-07-09T13:42:18Z</time>
      </trkpt>
      <trkpt lat="44.570017" lon="6.869232">
        <ele>2363.1</ele>
        <time>2015-07-09T13:42:28Z</time>
      </trkpt>
      <trkpt lat="44.569895" lon="6.869377">
        <ele>2365.8</ele>
        <time>2015-07-09T13:42:45Z</time>
      </trkpt>
      <trkpt lat="44.569893" lon="6.869388">
        <ele>2365.8</ele>
        <time>2015-07-09T13:42:46Z</time>
      </trkpt>
      <trkpt lat="44.569812" lon="6.869438">
        <ele>2367.6</ele>
        <time>2015-07-09T13:42:59Z</time>
      </trkpt>
      <trkpt lat="44.569742" lon="6.869508">
        <ele>2369.3</ele>
        <time>2015-07-09T13:43:10Z</time>
      </trkpt>
      <trkpt lat="44.569667" lon="6.869567">
        <ele>2371.6</ele>
        <time>2015-07-09T13:43:20Z</time>
      </trkpt>
      <trkpt lat="44.569598" lon="6.869640">
        <ele>2373.3</ele>
        <time>2015-07-09T13:43:30Z</time>
      </trkpt>
      <trkpt lat="44.569538" lon="6.869722">
        <ele>2375.1</ele>
        <time>2015-07-09T13:43:39Z</time>
      </trkpt>
      <trkpt lat="44.569402" lon="6.869827">
        <ele>2377.5</ele>
        <time>2015-07-09T13:43:57Z</time>
      </trkpt>
      <trkpt lat="44.569388" lon="6.869835">
        <ele>2377.8</ele>
        <time>2015-07-09T13:43:58Z</time>
      </trkpt>
      <trkpt lat="44.569312" lon="6.869885">
        <ele>2380.0</ele>
        <time>2015-07-09T13:44:05Z</time>
      </trkpt>
      <trkpt lat="44.569228" lon="6.869928">
        <ele>2381.6</ele>
        <time>2015-07-09T13:44:13Z</time>
      </trkpt>
      <trkpt lat="44.569147" lon="6.869945">
        <ele>2383.5</ele>
        <time>2015-07-09T13:44:21Z</time>
      </trkpt>
      <trkpt lat="44.569067" lon="6.869970">
        <ele>2381.6</ele>
        <time>2015-07-09T13:44:28Z</time>
      </trkpt>
      <trkpt lat="44.568982" lon="6.870000">
        <ele>2381.1</ele>
        <time>2015-07-09T13:44:37Z</time>
      </trkpt>
      <trkpt lat="44.568902" lon="6.870040">
        <ele>2380.6</ele>
        <time>2015-07-09T13:44:47Z</time>
      </trkpt>
      <trkpt lat="44.568752" lon="6.870130">
        <ele>2381.1</ele>
        <time>2015-07-09T13:45:03Z</time>
      </trkpt>
      <trkpt lat="44.568740" lon="6.870127">
        <ele>2381.1</ele>
        <time>2015-07-09T13:45:04Z</time>
      </trkpt>
      <trkpt lat="44.568667" lon="6.870062">
        <ele>2380.8</ele>
        <time>2015-07-09T13:45:32Z</time>
      </trkpt>
      <trkpt lat="44.568580" lon="6.870043">
        <ele>2380.8</ele>
        <time>2015-07-09T13:45:41Z</time>
      </trkpt>
      <trkpt lat="44.568523" lon="6.869958">
        <ele>2380.8</ele>
        <time>2015-07-09T13:45:53Z</time>
      </trkpt>
      <trkpt lat="44.568392" lon="6.869838">
        <ele>2382.3</ele>
        <time>2015-07-09T13:46:09Z</time>
      </trkpt>
      <trkpt lat="44.568327" lon="6.869762">
        <ele>2386.3</ele>
        <time>2015-07-09T13:48:41Z</time>
      </trkpt>
      <trkpt lat="44.568320" lon="6.869757">
        <ele>2386.3</ele>
        <time>2015-07-09T13:48:42Z</time>
      </trkpt>
      <trkpt lat="44.568207" lon="6.869605">
        <ele>2385.5</ele>
        <time>2015-07-09T13:50:02Z</time>
      </trkpt>
      <trkpt lat="44.568197" lon="6.869607">
        <ele>2385.3</ele>
        <time>2015-07-09T13:50:03Z</time>
      </trkpt>
      <trkpt lat="44.568118" lon="6.869545">
        <ele>2385.3</ele>
        <time>2015-07-09T13:50:37Z</time>
      </trkpt>
      <trkpt lat="44.568042" lon="6.869482">
        <ele>2383.8</ele>
        <time>2015-07-09T13:50:52Z</time>
      </trkpt>
      <trkpt lat="44.567902" lon="6.869377">
        <ele>2382.3</ele>
        <time>2015-07-09T13:51:23Z</time>
      </trkpt>
      <trkpt lat="44.567900" lon="6.869372">
        <ele>2382.1</ele>
        <time>2015-07-09T13:51:24Z</time>
      </trkpt>
      <trkpt lat="44.567857" lon="6.869267">
        <ele>2382.3</ele>
        <time>2015-07-09T13:52:39Z</time>
      </trkpt>
      <trkpt lat="44.567770" lon="6.869063">
        <ele>2381.8</ele>
        <time>2015-07-09T13:53:04Z</time>
      </trkpt>
      <trkpt lat="44.567777" lon="6.869060">
        <ele>2382.1</ele>
        <time>2015-07-09T13:53:05Z</time>
      </trkpt>
      <trkpt lat="44.567800" lon="6.868940">
        <ele>2384.5</ele>
        <time>2015-07-09T13:53:17Z</time>
      </trkpt>
      <trkpt lat="44.567807" lon="6.868820">
        <ele>2386.0</ele>
        <time>2015-07-09T13:53:24Z</time>
      </trkpt>
      <trkpt lat="44.567773" lon="6.868720">
        <ele>2387.1</ele>
        <time>2015-07-09T13:53:30Z</time>
      </trkpt>
      <trkpt lat="44.567840" lon="6.868640">
        <ele>2390.3</ele>
        <time>2015-07-09T13:53:51Z</time>
      </trkpt>
      <trkpt lat="44.567878" lon="6.868532">
        <ele>2392.0</ele>
        <time>2015-07-09T13:54:00Z</time>
      </trkpt>
      <trkpt lat="44.567952" lon="6.868330">
        <ele>2394.1</ele>
        <time>2015-07-09T13:54:15Z</time>
      </trkpt>
      <trkpt lat="44.567955" lon="6.868317">
        <ele>2394.1</ele>
        <time>2015-07-09T13:54:16Z</time>
      </trkpt>
      <trkpt lat="44.567958" lon="6.868197">
        <ele>2395.1</ele>
        <time>2015-07-09T13:54:25Z</time>
      </trkpt>
      <trkpt lat="44.567968" lon="6.868087">
        <ele>2397.3</ele>
        <time>2015-07-09T13:54:38Z</time>
      </trkpt>
      <trkpt lat="44.567932" lon="6.867982">
        <ele>2398.3</ele>
        <time>2015-07-09T13:54:50Z</time>
      </trkpt>
      <trkpt lat="44.567853" lon="6.867928">
        <ele>2398.6</ele>
        <time>2015-07-09T13:55:00Z</time>
      </trkpt>
      <trkpt lat="44.567718" lon="6.868005">
        <ele>2401.3</ele>
        <time>2015-07-09T13:55:17Z</time>
      </trkpt>
      <trkpt lat="44.567708" lon="6.868012">
        <ele>2401.6</ele>
        <time>2015-07-09T13:55:18Z</time>
      </trkpt>
      <trkpt lat="44.567627" lon="6.867998">
        <ele>2403.1</ele>
        <time>2015-07-09T13:55:27Z</time>
      </trkpt>
      <trkpt lat="44.567542" lon="6.867975">
        <ele>2404.1</ele>
        <time>2015-07-09T13:55:36Z</time>
      </trkpt>
      <trkpt lat="44.567482" lon="6.867882">
        <ele>2408.1</ele>
        <time>2015-07-09T13:55:57Z</time>
      </trkpt>
      <trkpt lat="44.567583" lon="6.867698">
        <ele>2413.0</ele>
        <time>2015-07-09T13:56:23Z</time>
      </trkpt>
      <trkpt lat="44.567587" lon="6.867690">
        <ele>2413.3</ele>
        <time>2015-07-09T13:56:24Z</time>
      </trkpt>
      <trkpt lat="44.567517" lon="6.867612">
        <ele>2416.6</ele>
        <time>2015-07-09T13:56:52Z</time>
      </trkpt>
      <trkpt lat="44.567562" lon="6.867390">
        <ele>2420.3</ele>
        <time>2015-07-09T13:57:24Z</time>
      </trkpt>
      <trkpt lat="44.567560" lon="6.867377">
        <ele>2420.5</ele>
        <time>2015-07-09T13:57:25Z</time>
      </trkpt>
      <trkpt lat="44.567597" lon="6.867263">
        <ele>2423.6</ele>
        <time>2015-07-09T13:57:46Z</time>
      </trkpt>
      <trkpt lat="44.567648" lon="6.867168">
        <ele>2425.3</ele>
        <time>2015-07-09T13:57:59Z</time>
      </trkpt>
      <trkpt lat="44.567738" lon="6.866998">
        <ele>2428.5</ele>
        <time>2015-07-09T13:58:32Z</time>
      </trkpt>
      <trkpt lat="44.567735" lon="6.866983">
        <ele>2428.6</ele>
        <time>2015-07-09T13:58:33Z</time>
      </trkpt>
      <trkpt lat="44.567813" lon="6.866923">
        <ele>2429.8</ele>
        <time>2015-07-09T13:58:51Z</time>
      </trkpt>
      <trkpt lat="44.567895" lon="6.866903">
        <ele>2430.6</ele>
        <time>2015-07-09T13:59:05Z</time>
      </trkpt>
      <trkpt lat="44.567963" lon="6.866833">
        <ele>2432.8</ele>
        <time>2015-07-09T13:59:14Z</time>
      </trkpt>
      <trkpt lat="44.568058" lon="6.866658">
        <ele>2435.6</ele>
        <time>2015-07-09T13:59:44Z</time>
      </trkpt>
      <trkpt lat="44.568067" lon="6.866648">
        <ele>2435.6</ele>
        <time>2015-07-09T13:59:45Z</time>
      </trkpt>
      <trkpt lat="44.568083" lon="6.866525">
        <ele>2438.1</ele>
        <time>2015-07-09T13:59:53Z</time>
      </trkpt>
      <trkpt lat="44.568080" lon="6.866405">
        <ele>2439.8</ele>
        <time>2015-07-09T14:00:01Z</time>
      </trkpt>
      <trkpt lat="44.568113" lon="6.866305">
        <ele>2439.1</ele>
        <time>2015-07-09T14:00:07Z</time>
      </trkpt>
      <trkpt lat="44.568130" lon="6.866192">
        <ele>2438.3</ele>
        <time>2015-07-09T14:00:16Z</time>
      </trkpt>
      <trkpt lat="44.568108" lon="6.866072">
        <ele>2438.3</ele>
        <time>2015-07-09T14:00:24Z</time>
      </trkpt>
      <trkpt lat="44.568125" lon="6.865948">
        <ele>2438.6</ele>
        <time>2015-07-09T14:00:33Z</time>
      </trkpt>
      <trkpt lat="44.568202" lon="6.865763">
        <ele>2442.0</ele>
        <time>2015-07-09T14:00:51Z</time>
      </trkpt>
      <trkpt lat="44.568208" lon="6.865752">
        <ele>2442.1</ele>
        <time>2015-07-09T14:00:52Z</time>
      </trkpt>
      <trkpt lat="44.568230" lon="6.865643">
        <ele>2443.0</ele>
        <time>2015-07-09T14:01:01Z</time>
      </trkpt>
      <trkpt lat="44.568283" lon="6.865552">
        <ele>2443.8</ele>
        <time>2015-07-09T14:01:11Z</time>
      </trkpt>
      <trkpt lat="44.568330" lon="6.865450">
        <ele>2444.5</ele>
        <time>2015-07-09T14:01:19Z</time>
      </trkpt>
      <trkpt lat="44.568372" lon="6.865343">
        <ele>2445.0</ele>
        <time>2015-07-09T14:01:27Z</time>
      </trkpt>
      <trkpt lat="44.568372" lon="6.865222">
        <ele>2445.3</ele>
        <time>2015-07-09T14:01:35Z</time>
      </trkpt>
      <trkpt lat="44.568388" lon="6.865105">
        <ele>2445.5</ele>
        <time>2015-07-09T14:01:42Z</time>
      </trkpt>
      <trkpt lat="44.568468" lon="6.864930">
        <ele>2446.0</ele>
        <time>2015-07-09T14:01:54Z</time>
      </trkpt>
      <trkpt lat="44.568472" lon="6.864918">
        <ele>2446.0</ele>
        <time>2015-07-09T14:01:55Z</time>
      </trkpt>
      <trkpt lat="44.568447" lon="6.864802">
        <ele>2446.6</ele>
        <time>2015-07-09T14:02:04Z</time>
      </trkpt>
      <trkpt lat="44.568442" lon="6.864682">
        <ele>2447.1</ele>
        <time>2015-07-09T14:02:12Z</time>
      </trkpt>
      <trkpt lat="44.568433" lon="6.864557">
        <ele>2449.0</ele>
        <time>2015-07-09T14:02:19Z</time>
      </trkpt>
      <trkpt lat="44.568438" lon="6.864448">
        <ele>2450.0</ele>
        <time>2015-07-09T14:02:28Z</time>
      </trkpt>
      <trkpt lat="44.568328" lon="6.864287">
        <ele>2453.0</ele>
        <time>2015-07-09T14:03:00Z</time>
      </trkpt>
      <trkpt lat="44.568330" lon="6.864270">
        <ele>2453.3</ele>
        <time>2015-07-09T14:03:01Z</time>
      </trkpt>
      <trkpt lat="44.568377" lon="6.864163">
        <ele>2455.5</ele>
        <time>2015-07-09T14:03:09Z</time>
      </trkpt>
      <trkpt lat="44.568368" lon="6.864043">
        <ele>2460.1</ele>
        <time>2015-07-09T14:03:25Z</time>
      </trkpt>
      <trkpt lat="44.568290" lon="6.864097">
        <ele>2461.8</ele>
        <time>2015-07-09T14:03:33Z</time>
      </trkpt>
      <trkpt lat="44.568207" lon="6.864022">
        <ele>2468.8</ele>
        <time>2015-07-09T14:04:03Z</time>
      </trkpt>
      <trkpt lat="44.568210" lon="6.864012">
        <ele>2469.0</ele>
        <time>2015-07-09T14:04:04Z</time>
      </trkpt>
      <trkpt lat="44.568227" lon="6.863895">
        <ele>2471.3</ele>
        <time>2015-07-09T14:04:11Z</time>
      </trkpt>
      <trkpt lat="44.568252" lon="6.863777">
        <ele>2474.6</ele>
        <time>2015-07-09T14:04:18Z</time>
      </trkpt>
      <trkpt lat="44.568267" lon="6.863660">
        <ele>2477.1</ele>
        <time>2015-07-09T14:04:28Z</time>
      </trkpt>
      <trkpt lat="44.568267" lon="6.863542">
        <ele>2477.1</ele>
        <time>2015-07-09T14:04:50Z</time>
      </trkpt>
      <trkpt lat="44.568187" lon="6.863392">
        <ele>2482.1</ele>
        <time>2015-07-09T14:05:07Z</time>
      </trkpt>
      <trkpt lat="44.568180" lon="6.863378">
        <ele>2482.5</ele>
        <time>2015-07-09T14:05:08Z</time>
      </trkpt>
      <trkpt lat="44.568107" lon="6.863317">
        <ele>2487.8</ele>
        <time>2015-07-09T14:05:24Z</time>
      </trkpt>
      <trkpt lat="44.568033" lon="6.863282">
        <ele>2488.3</ele>
        <time>2015-07-09T14:05:29Z</time>
      </trkpt>
      <trkpt lat="44.567952" lon="6.863263">
        <ele>2488.3</ele>
        <time>2015-07-09T14:05:38Z</time>
      </trkpt>
      <trkpt lat="44.567960" lon="6.863380">
        <ele>2489.1</ele>
        <time>2015-07-09T14:05:46Z</time>
      </trkpt>
      <trkpt lat="44.567973" lon="6.863498">
        <ele>2492.1</ele>
        <time>2015-07-09T14:05:55Z</time>
      </trkpt>
      <trkpt lat="44.567962" lon="6.863622">
        <ele>2493.3</ele>
        <time>2015-07-09T14:06:02Z</time>
      </trkpt>
      <trkpt lat="44.567840" lon="6.863738">
        <ele>2496.6</ele>
        <time>2015-07-09T14:06:16Z</time>
      </trkpt>
      <trkpt lat="44.567830" lon="6.863740">
        <ele>2496.8</ele>
        <time>2015-07-09T14:06:17Z</time>
      </trkpt>
      <trkpt lat="44.567747" lon="6.863703">
        <ele>2498.8</ele>
        <time>2015-07-09T14:06:30Z</time>
      </trkpt>
      <trkpt lat="44.567693" lon="6.863605">
        <ele>2501.0</ele>
        <time>2015-07-09T14:06:47Z</time>
      </trkpt>
      <trkpt lat="44.567650" lon="6.863495">
        <ele>2503.1</ele>
        <time>2015-07-09T14:06:58Z</time>
      </trkpt>
      <trkpt lat="44.567517" lon="6.863357">
        <ele>2505.3</ele>
        <time>2015-07-09T14:07:18Z</time>
      </trkpt>
      <trkpt lat="44.567510" lon="6.863350">
        <ele>2505.3</ele>
        <time>2015-07-09T14:07:19Z</time>
      </trkpt>
      <trkpt lat="44.567450" lon="6.863268">
        <ele>2505.6</ele>
        <time>2015-07-09T14:07:28Z</time>
      </trkpt>
      <trkpt lat="44.567375" lon="6.863202">
        <ele>2506.8</ele>
        <time>2015-07-09T14:07:37Z</time>
      </trkpt>
      <trkpt lat="44.567327" lon="6.863103">
        <ele>2508.6</ele>
        <time>2015-07-09T14:07:44Z</time>
      </trkpt>
      <trkpt lat="44.567267" lon="6.863012">
        <ele>2510.5</ele>
        <time>2015-07-09T14:07:54Z</time>
      </trkpt>
      <trkpt lat="44.567180" lon="6.862817">
        <ele>2515.6</ele>
        <time>2015-07-09T14:08:26Z</time>
      </trkpt>
      <trkpt lat="44.567177" lon="6.862815">
        <ele>2515.6</ele>
        <time>2015-07-09T14:08:27Z</time>
      </trkpt>
      <trkpt lat="44.567005" lon="6.862862">
        <ele>2518.6</ele>
        <time>2015-07-09T14:09:31Z</time>
      </trkpt>
      <trkpt lat="44.567002" lon="6.862853">
        <ele>2518.6</ele>
        <time>2015-07-09T14:09:32Z</time>
      </trkpt>
      <trkpt lat="44.566925" lon="6.862797">
        <ele>2520.3</ele>
        <time>2015-07-09T14:12:56Z</time>
      </trkpt>
      <trkpt lat="44.566795" lon="6.862645">
        <ele>2519.1</ele>
        <time>2015-07-09T14:13:21Z</time>
      </trkpt>
      <trkpt lat="44.566788" lon="6.862640">
        <ele>2519.0</ele>
        <time>2015-07-09T14:13:22Z</time>
      </trkpt>
      <trkpt lat="44.566753" lon="6.862528">
        <ele>2516.6</ele>
        <time>2015-07-09T14:13:36Z</time>
      </trkpt>
      <trkpt lat="44.566718" lon="6.862425">
        <ele>2514.6</ele>
        <time>2015-07-09T14:13:49Z</time>
      </trkpt>
      <trkpt lat="44.566713" lon="6.862218">
        <ele>2516.0</ele>
        <time>2015-07-09T14:14:25Z</time>
      </trkpt>
      <trkpt lat="44.566713" lon="6.862195">
        <ele>2516.1</ele>
        <time>2015-07-09T14:14:26Z</time>
      </trkpt>
      <trkpt lat="44.566702" lon="6.862070">
        <ele>2517.6</ele>
        <time>2015-07-09T14:15:00Z</time>
      </trkpt>
      <trkpt lat="44.566642" lon="6.862157">
        <ele>2520.6</ele>
        <time>2015-07-09T14:15:10Z</time>
      </trkpt>
      <trkpt lat="44.566567" lon="6.862210">
        <ele>2521.6</ele>
        <time>2015-07-09T14:15:18Z</time>
      </trkpt>
      <trkpt lat="44.566480" lon="6.862210">
        <ele>2523.3</ele>
        <time>2015-07-09T14:15:29Z</time>
      </trkpt>
      <trkpt lat="44.566400" lon="6.862223">
        <ele>2524.1</ele>
        <time>2015-07-09T14:15:36Z</time>
      </trkpt>
      <trkpt lat="44.566242" lon="6.862263">
        <ele>2525.8</ele>
        <time>2015-07-09T14:15:58Z</time>
      </trkpt>
      <trkpt lat="44.566233" lon="6.862260">
        <ele>2525.8</ele>
        <time>2015-07-09T14:15:59Z</time>
      </trkpt>
      <trkpt lat="44.566147" lon="6.862265">
        <ele>2526.8</ele>
        <time>2015-07-09T14:16:08Z</time>
      </trkpt>
      <trkpt lat="44.566067" lon="6.862292">
        <ele>2529.8</ele>
        <time>2015-07-09T14:16:18Z</time>
      </trkpt>
      <trkpt lat="44.565982" lon="6.862303">
        <ele>2530.8</ele>
        <time>2015-07-09T14:16:28Z</time>
      </trkpt>
      <trkpt lat="44.565823" lon="6.862348">
        <ele>2531.8</ele>
        <time>2015-07-09T14:16:59Z</time>
      </trkpt>
      <trkpt lat="44.565820" lon="6.862353">
        <ele>2532.0</ele>
        <time>2015-07-09T14:17:00Z</time>
      </trkpt>
      <trkpt lat="44.565733" lon="6.862377">
        <ele>2533.6</ele>
        <time>2015-07-09T14:17:13Z</time>
      </trkpt>
      <trkpt lat="44.565652" lon="6.862350">
        <ele>2535.5</ele>
        <time>2015-07-09T14:17:26Z</time>
      </trkpt>
      <trkpt lat="44.565575" lon="6.862307">
        <ele>2539.6</ele>
        <time>2015-07-09T14:17:42Z</time>
      </trkpt>
      <trkpt lat="44.565488" lon="6.862317">
        <ele>2542.8</ele>
        <time>2015-07-09T14:17:52Z</time>
      </trkpt>
      <trkpt lat="44.565328" lon="6.862308">
        <ele>2546.6</ele>
        <time>2015-07-09T14:18:10Z</time>
      </trkpt>
      <trkpt lat="44.565322" lon="6.862307">
        <ele>2546.8</ele>
        <time>2015-07-09T14:18:11Z</time>
      </trkpt>
      <trkpt lat="44.565238" lon="6.862290">
        <ele>2547.3</ele>
        <time>2015-07-09T14:18:20Z</time>
      </trkpt>
      <trkpt lat="44.565108" lon="6.862340">
        <ele>2544.8</ele>
        <time>2015-07-09T14:19:14Z</time>
      </trkpt>
      <trkpt lat="44.565100" lon="6.862345">
        <ele>2544.8</ele>
        <time>2015-07-09T14:19:15Z</time>
      </trkpt>
      <trkpt lat="44.565018" lon="6.862365">
        <ele>2545.6</ele>
        <time>2015-07-09T14:19:23Z</time>
      </trkpt>
      <trkpt lat="44.564937" lon="6.862397">
        <ele>2545.3</ele>
        <time>2015-07-09T14:19:32Z</time>
      </trkpt>
      <trkpt lat="44.564860" lon="6.862450">
        <ele>2544.5</ele>
        <time>2015-07-09T14:19:42Z</time>
      </trkpt>
      <trkpt lat="44.564788" lon="6.862503">
        <ele>2544.3</ele>
        <time>2015-07-09T14:19:50Z</time>
      </trkpt>
      <trkpt lat="44.564627" lon="6.862555">
        <ele>2544.1</ele>
        <time>2015-07-09T14:20:15Z</time>
      </trkpt>
      <trkpt lat="44.564618" lon="6.862558">
        <ele>2544.1</ele>
        <time>2015-07-09T14:20:16Z</time>
      </trkpt>
      <trkpt lat="44.564533" lon="6.862573">
        <ele>2543.3</ele>
        <time>2015-07-09T14:20:27Z</time>
      </trkpt>
      <trkpt lat="44.564452" lon="6.862548">
        <ele>2543.1</ele>
        <time>2015-07-09T14:20:42Z</time>
      </trkpt>
      <trkpt lat="44.564375" lon="6.862587">
        <ele>2543.1</ele>
        <time>2015-07-09T14:20:53Z</time>
      </trkpt>
      <trkpt lat="44.564292" lon="6.862600">
        <ele>2542.3</ele>
        <time>2015-07-09T14:21:02Z</time>
      </trkpt>
      <trkpt lat="44.564208" lon="6.862623">
        <ele>2541.8</ele>
        <time>2015-07-09T14:21:12Z</time>
      </trkpt>
      <trkpt lat="44.564062" lon="6.862682">
        <ele>2543.5</ele>
        <time>2015-07-09T14:21:26Z</time>
      </trkpt>
      <trkpt lat="44.564048" lon="6.862683">
        <ele>2543.3</ele>
        <time>2015-07-09T14:21:27Z</time>
      </trkpt>
      <trkpt lat="44.563968" lon="6.862703">
        <ele>2541.0</ele>
        <time>2015-07-09T14:23:08Z</time>
      </trkpt>
      <trkpt lat="44.563910" lon="6.862790">
        <ele>2539.6</ele>
        <time>2015-07-09T14:23:19Z</time>
      </trkpt>
      <trkpt lat="44.563825" lon="6.862830">
        <ele>2540.5</ele>
        <time>2015-07-09T14:23:27Z</time>
      </trkpt>
      <trkpt lat="44.563767" lon="6.862922">
        <ele>2542.0</ele>
        <time>2015-07-09T14:23:38Z</time>
      </trkpt>
      <trkpt lat="44.563637" lon="6.863047">
        <ele>2542.8</ele>
        <time>2015-07-09T14:23:52Z</time>
      </trkpt>
      <trkpt lat="44.563628" lon="6.863057">
        <ele>2542.8</ele>
        <time>2015-07-09T14:23:53Z</time>
      </trkpt>
      <trkpt lat="44.563542" lon="6.863087">
        <ele>2544.1</ele>
        <time>2015-07-09T14:25:31Z</time>
      </trkpt>
      <trkpt lat="44.563695" lon="6.863050">
        <ele>2546.5</ele>
        <time>2015-07-09T14:25:51Z</time>
      </trkpt>
      <trkpt lat="44.563700" lon="6.863055">
        <ele>2546.5</ele>
        <time>2015-07-09T14:25:52Z</time>
      </trkpt>
      <trkpt lat="44.563685" lon="6.863178">
        <ele>2548.1</ele>
        <time>2015-07-09T14:27:19Z</time>
      </trkpt>
      <trkpt lat="44.563550" lon="6.863092">
        <ele>2546.3</ele>
        <time>2015-07-09T14:27:47Z</time>
      </trkpt>
      <trkpt lat="44.563477" lon="6.863130">
        <ele>2547.8</ele>
        <time>2015-07-09T14:29:16Z</time>
      </trkpt>
      <trkpt lat="44.563467" lon="6.863140">
        <ele>2547.6</ele>
        <time>2015-07-09T14:29:17Z</time>
      </trkpt>
      <trkpt lat="44.563410" lon="6.863217">
        <ele>2547.1</ele>
        <time>2015-07-09T14:29:24Z</time>
      </trkpt>
      <trkpt lat="44.563348" lon="6.863297">
        <ele>2547.1</ele>
        <time>2015-07-09T14:29:31Z</time>
      </trkpt>
      <trkpt lat="44.563273" lon="6.863357">
        <ele>2548.1</ele>
        <time>2015-07-09T14:29:38Z</time>
      </trkpt>
      <trkpt lat="44.563195" lon="6.863417">
        <ele>2548.1</ele>
        <time>2015-07-09T14:29:46Z</time>
      </trkpt>
      <trkpt lat="44.563070" lon="6.863538">
        <ele>2548.8</ele>
        <time>2015-07-09T14:30:18Z</time>
      </trkpt>
      <trkpt lat="44.563062" lon="6.863548">
        <ele>2548.8</ele>
        <time>2015-07-09T14:30:19Z</time>
      </trkpt>
      <trkpt lat="44.562993" lon="6.863625">
        <ele>2549.8</ele>
        <time>2015-07-09T14:30:26Z</time>
      </trkpt>
      <trkpt lat="44.562915" lon="6.863683">
        <ele>2550.3</ele>
        <time>2015-07-09T14:30:36Z</time>
      </trkpt>
      <trkpt lat="44.562832" lon="6.863665">
        <ele>2549.6</ele>
        <time>2015-07-09T14:30:55Z</time>
      </trkpt>
      <trkpt lat="44.562805" lon="6.863890">
        <ele>2550.1</ele>
        <time>2015-07-09T14:31:20Z</time>
      </trkpt>
      <trkpt lat="44.562802" lon="6.863903">
        <ele>2550.1</ele>
        <time>2015-07-09T14:31:21Z</time>
      </trkpt>
      <trkpt lat="44.562762" lon="6.864003">
        <ele>2551.1</ele>
        <time>2015-07-09T14:32:13Z</time>
      </trkpt>
      <trkpt lat="44.562685" lon="6.864043">
        <ele>2551.3</ele>
        <time>2015-07-09T14:32:25Z</time>
      </trkpt>
      <trkpt lat="44.562555" lon="6.864170">
        <ele>2549.3</ele>
        <time>2015-07-09T14:32:45Z</time>
      </trkpt>
      <trkpt lat="44.562545" lon="6.864178">
        <ele>2549.3</ele>
        <time>2015-07-09T14:32:46Z</time>
      </trkpt>
      <trkpt lat="44.562427" lon="6.864343">
        <ele>2549.8</ele>
        <time>2015-07-09T14:34:16Z</time>
      </trkpt>
      <trkpt lat="44.562425" lon="6.864347">
        <ele>2549.8</ele>
        <time>2015-07-09T14:34:17Z</time>
      </trkpt>
      <trkpt lat="44.562382" lon="6.864453">
        <ele>2549.8</ele>
        <time>2015-07-09T14:34:27Z</time>
      </trkpt>
      <trkpt lat="44.562323" lon="6.864538">
        <ele>2550.5</ele>
        <time>2015-07-09T14:34:34Z</time>
      </trkpt>
      <trkpt lat="44.562288" lon="6.864637">
        <ele>2552.3</ele>
        <time>2015-07-09T14:34:43Z</time>
      </trkpt>
      <trkpt lat="44.562232" lon="6.864717">
        <ele>2553.8</ele>
        <time>2015-07-09T14:34:56Z</time>
      </trkpt>
      <trkpt lat="44.562077" lon="6.864798">
        <ele>2555.6</ele>
        <time>2015-07-09T14:35:18Z</time>
      </trkpt>
      <trkpt lat="44.562078" lon="6.864808">
        <ele>2555.6</ele>
        <time>2015-07-09T14:35:19Z</time>
      </trkpt>
      <trkpt lat="44.562068" lon="6.864928">
        <ele>2557.6</ele>
        <time>2015-07-09T14:35:30Z</time>
      </trkpt>
      <trkpt lat="44.561945" lon="6.865072">
        <ele>2558.8</ele>
        <time>2015-07-09T14:36:19Z</time>
      </trkpt>
      <trkpt lat="44.561940" lon="6.865082">
        <ele>2559.0</ele>
        <time>2015-07-09T14:36:20Z</time>
      </trkpt>
      <trkpt lat="44.561943" lon="6.865207">
        <ele>2560.1</ele>
        <time>2015-07-09T14:36:30Z</time>
      </trkpt>
      <trkpt lat="44.561945" lon="6.865330">
        <ele>2560.1</ele>
        <time>2015-07-09T14:36:40Z</time>
      </trkpt>
      <trkpt lat="44.561943" lon="6.865448">
        <ele>2558.5</ele>
        <time>2015-07-09T14:36:48Z</time>
      </trkpt>
      <trkpt lat="44.561963" lon="6.865562">
        <ele>2558.1</ele>
        <time>2015-07-09T14:37:08Z</time>
      </trkpt>
      <trkpt lat="44.562002" lon="6.865778">
        <ele>2556.3</ele>
        <time>2015-07-09T14:37:25Z</time>
      </trkpt>
      <trkpt lat="44.562007" lon="6.865797">
        <ele>2556.1</ele>
        <time>2015-07-09T14:37:26Z</time>
      </trkpt>
      <trkpt lat="44.561972" lon="6.865903">
        <ele>2553.5</ele>
        <time>2015-07-09T14:37:37Z</time>
      </trkpt>
      <trkpt lat="44.561907" lon="6.866088">
        <ele>2551.8</ele>
        <time>2015-07-09T14:38:27Z</time>
      </trkpt>
      <trkpt lat="44.561912" lon="6.866090">
        <ele>2551.6</ele>
        <time>2015-07-09T14:38:28Z</time>
      </trkpt>
      <trkpt lat="44.561975" lon="6.866177">
        <ele>2551.8</ele>
        <time>2015-07-09T14:38:40Z</time>
      </trkpt>
      <trkpt lat="44.562020" lon="6.866280">
        <ele>2552.1</ele>
        <time>2015-07-09T14:38:53Z</time>
      </trkpt>
      <trkpt lat="44.562080" lon="6.866372">
        <ele>2552.6</ele>
        <time>2015-07-09T14:39:03Z</time>
      </trkpt>
      <trkpt lat="44.562142" lon="6.866447">
        <ele>2553.6</ele>
        <time>2015-07-09T14:39:12Z</time>
      </trkpt>
      <trkpt lat="44.562175" lon="6.866555">
        <ele>2554.1</ele>
        <time>2015-07-09T14:39:21Z</time>
      </trkpt>
      <trkpt lat="44.562250" lon="6.866762">
        <ele>2554.6</ele>
        <time>2015-07-09T14:39:38Z</time>
      </trkpt>
      <trkpt lat="44.562253" lon="6.866775">
        <ele>2554.8</ele>
        <time>2015-07-09T14:39:39Z</time>
      </trkpt>
      <trkpt lat="44.562285" lon="6.866882">
        <ele>2555.3</ele>
        <time>2015-07-09T14:39:51Z</time>
      </trkpt>
      <trkpt lat="44.562325" lon="6.866992">
        <ele>2556.1</ele>
        <time>2015-07-09T14:40:03Z</time>
      </trkpt>
      <trkpt lat="44.562368" lon="6.867092">
        <ele>2557.5</ele>
        <time>2015-07-09T14:40:13Z</time>
      </trkpt>
      <trkpt lat="44.562453" lon="6.867293">
        <ele>2560.8</ele>
        <time>2015-07-09T14:40:40Z</time>
      </trkpt>
      <trkpt lat="44.562457" lon="6.867297">
        <ele>2561.0</ele>
        <time>2015-07-09T14:40:41Z</time>
      </trkpt>
      <trkpt lat="44.562433" lon="6.867418">
        <ele>2556.8</ele>
        <time>2015-07-09T14:41:15Z</time>
      </trkpt>
      <trkpt lat="44.562447" lon="6.867640">
        <ele>2553.1</ele>
        <time>2015-07-09T14:42:03Z</time>
      </trkpt>
      <trkpt lat="44.562448" lon="6.867647">
        <ele>2552.8</ele>
        <time>2015-07-09T14:42:04Z</time>
      </trkpt>
      <trkpt lat="44.562470" lon="6.867765">
        <ele>2553.1</ele>
        <time>2015-07-09T14:42:15Z</time>
      </trkpt>
    </trkseg>
  </trk>
</gpx>
